<?xml version="1.0" encoding="UTF-8" standalone="no" ?>
<gpx xmlns="http://www.topografix.com/GPX/1/1" xmlns:xsi="http://www.w3.org/2001/XMLSchema-instance" xsi:schemaLocation="http://www.topografix.com/GPX/1/1 http://www.topografix.com/GPX/1/1/gpx.xsd" version="1.1" creator="VisuGPX - https://www.visugpx.com">
  <metadata>
    <name>Moulins Engilbert</name>
    <desc><![CDATA[Super , belle rando aux couleurs de l\'automne ]]></desc>
  </metadata>
  <trk>
    <name><![CDATA[2-OCT-15 18:41:53]]></name>
    <trkseg>
      <trkpt lat="46.98664" lon="3.8094">
        <ele>105.4</ele>
        <time>2015-10-28T12:51:21Z</time>
      </trkpt>
      <trkpt lat="46.98633" lon="3.80926">
        <ele>168.37</ele>
        <time>2015-10-28T12:51:49Z</time>
      </trkpt>
      <trkpt lat="46.98638" lon="3.80931">
        <ele>169.33</ele>
        <time>2015-10-28T12:52:23Z</time>
      </trkpt>
      <trkpt lat="46.98635" lon="3.80927">
        <ele>171.73</ele>
        <time>2015-10-28T12:52:39Z</time>
      </trkpt>
      <trkpt lat="46.98633" lon="3.80925">
        <ele>170.29</ele>
        <time>2015-10-28T12:52:59Z</time>
      </trkpt>
      <trkpt lat="46.98633" lon="3.80924">
        <ele>169.81</ele>
        <time>2015-10-28T12:53:25Z</time>
      </trkpt>
      <trkpt lat="46.98633" lon="3.80924">
        <ele>169.81</ele>
        <time>2015-10-28T12:53:52Z</time>
      </trkpt>
      <trkpt lat="46.98633" lon="3.80924">
        <ele>169.81</ele>
        <time>2015-10-28T12:54:12Z</time>
      </trkpt>
      <trkpt lat="46.98631" lon="3.80924">
        <ele>169.81</ele>
        <time>2015-10-28T12:54:31Z</time>
      </trkpt>
      <trkpt lat="46.98622" lon="3.80929">
        <ele>170.77</ele>
        <time>2015-10-28T12:54:44Z</time>
      </trkpt>
      <trkpt lat="46.9861" lon="3.80922">
        <ele>174.62</ele>
        <time>2015-10-28T12:55:01Z</time>
      </trkpt>
      <trkpt lat="46.98608" lon="3.80922">
        <ele>175.1</ele>
        <time>2015-10-28T12:55:03Z</time>
      </trkpt>
      <trkpt lat="46.98587" lon="3.80915">
        <ele>176.06</ele>
        <time>2015-10-28T12:55:20Z</time>
      </trkpt>
      <trkpt lat="46.98575" lon="3.8091">
        <ele>174.62</ele>
        <time>2015-10-28T12:55:35Z</time>
      </trkpt>
      <trkpt lat="46.98568" lon="3.8091">
        <ele>174.14</ele>
        <time>2015-10-28T12:55:40Z</time>
      </trkpt>
      <trkpt lat="46.98541" lon="3.80915">
        <ele>173.66</ele>
        <time>2015-10-28T12:56:00Z</time>
      </trkpt>
      <trkpt lat="46.98521" lon="3.80917">
        <ele>172.21</ele>
        <time>2015-10-28T12:56:17Z</time>
      </trkpt>
      <trkpt lat="46.98499" lon="3.80919">
        <ele>169.33</ele>
        <time>2015-10-28T12:56:35Z</time>
      </trkpt>
      <trkpt lat="46.9848" lon="3.80927">
        <ele>169.81</ele>
        <time>2015-10-28T12:56:49Z</time>
      </trkpt>
      <trkpt lat="46.9847" lon="3.80949">
        <ele>170.29</ele>
        <time>2015-10-28T12:57:02Z</time>
      </trkpt>
      <trkpt lat="46.98464" lon="3.80966">
        <ele>170.77</ele>
        <time>2015-10-28T12:57:16Z</time>
      </trkpt>
      <trkpt lat="46.98456" lon="3.80972">
        <ele>170.77</ele>
        <time>2015-10-28T12:57:23Z</time>
      </trkpt>
      <trkpt lat="46.98449" lon="3.80979">
        <ele>171.25</ele>
        <time>2015-10-28T12:57:38Z</time>
      </trkpt>
      <trkpt lat="46.98444" lon="3.80979">
        <ele>171.25</ele>
        <time>2015-10-28T12:57:44Z</time>
      </trkpt>
      <trkpt lat="46.98425" lon="3.80974">
        <ele>171.73</ele>
        <time>2015-10-28T12:58:00Z</time>
      </trkpt>
      <trkpt lat="46.98407" lon="3.80961">
        <ele>172.21</ele>
        <time>2015-10-28T12:58:16Z</time>
      </trkpt>
      <trkpt lat="46.98389" lon="3.80942">
        <ele>170.29</ele>
        <time>2015-10-28T12:58:33Z</time>
      </trkpt>
      <trkpt lat="46.98378" lon="3.80927">
        <ele>171.25</ele>
        <time>2015-10-28T12:58:49Z</time>
      </trkpt>
      <trkpt lat="46.98361" lon="3.8091">
        <ele>170.29</ele>
        <time>2015-10-28T12:59:04Z</time>
      </trkpt>
      <trkpt lat="46.98348" lon="3.80893">
        <ele>171.73</ele>
        <time>2015-10-28T12:59:19Z</time>
      </trkpt>
      <trkpt lat="46.9833" lon="3.80872">
        <ele>172.21</ele>
        <time>2015-10-28T12:59:37Z</time>
      </trkpt>
      <trkpt lat="46.9831" lon="3.80853">
        <ele>175.1</ele>
        <time>2015-10-28T12:59:55Z</time>
      </trkpt>
      <trkpt lat="46.98291" lon="3.8084">
        <ele>175.1</ele>
        <time>2015-10-28T13:00:12Z</time>
      </trkpt>
      <trkpt lat="46.98278" lon="3.80826">
        <ele>175.1</ele>
        <time>2015-10-28T13:00:26Z</time>
      </trkpt>
      <trkpt lat="46.98263" lon="3.80814">
        <ele>174.62</ele>
        <time>2015-10-28T13:00:40Z</time>
      </trkpt>
      <trkpt lat="46.98245" lon="3.80795">
        <ele>176.54</ele>
        <time>2015-10-28T13:00:58Z</time>
      </trkpt>
      <trkpt lat="46.98232" lon="3.80787">
        <ele>176.54</ele>
        <time>2015-10-28T13:01:12Z</time>
      </trkpt>
      <trkpt lat="46.98214" lon="3.80773">
        <ele>175.1</ele>
        <time>2015-10-28T13:01:27Z</time>
      </trkpt>
      <trkpt lat="46.98194" lon="3.80757">
        <ele>176.06</ele>
        <time>2015-10-28T13:01:44Z</time>
      </trkpt>
      <trkpt lat="46.98175" lon="3.80742">
        <ele>175.1</ele>
        <time>2015-10-28T13:02:00Z</time>
      </trkpt>
      <trkpt lat="46.98158" lon="3.80726">
        <ele>174.14</ele>
        <time>2015-10-28T13:02:16Z</time>
      </trkpt>
      <trkpt lat="46.9814" lon="3.80709">
        <ele>174.62</ele>
        <time>2015-10-28T13:02:32Z</time>
      </trkpt>
      <trkpt lat="46.98127" lon="3.80692">
        <ele>175.58</ele>
        <time>2015-10-28T13:02:47Z</time>
      </trkpt>
      <trkpt lat="46.98112" lon="3.8068">
        <ele>176.06</ele>
        <time>2015-10-28T13:03:00Z</time>
      </trkpt>
      <trkpt lat="46.98093" lon="3.80668">
        <ele>176.06</ele>
        <time>2015-10-28T13:03:16Z</time>
      </trkpt>
      <trkpt lat="46.98075" lon="3.80654">
        <ele>173.66</ele>
        <time>2015-10-28T13:03:32Z</time>
      </trkpt>
      <trkpt lat="46.98059" lon="3.8064">
        <ele>173.66</ele>
        <time>2015-10-28T13:03:46Z</time>
      </trkpt>
      <trkpt lat="46.98046" lon="3.80623">
        <ele>172.69</ele>
        <time>2015-10-28T13:04:01Z</time>
      </trkpt>
      <trkpt lat="46.98031" lon="3.80606">
        <ele>172.69</ele>
        <time>2015-10-28T13:04:16Z</time>
      </trkpt>
      <trkpt lat="46.9802" lon="3.80585">
        <ele>174.14</ele>
        <time>2015-10-28T13:04:31Z</time>
      </trkpt>
      <trkpt lat="46.98006" lon="3.80566">
        <ele>176.54</ele>
        <time>2015-10-28T13:04:46Z</time>
      </trkpt>
      <trkpt lat="46.9799" lon="3.80547">
        <ele>177.02</ele>
        <time>2015-10-28T13:05:03Z</time>
      </trkpt>
      <trkpt lat="46.97974" lon="3.80535">
        <ele>177.5</ele>
        <time>2015-10-28T13:05:18Z</time>
      </trkpt>
      <trkpt lat="46.97956" lon="3.80525">
        <ele>179.42</ele>
        <time>2015-10-28T13:05:35Z</time>
      </trkpt>
      <trkpt lat="46.9794" lon="3.80517">
        <ele>180.87</ele>
        <time>2015-10-28T13:05:49Z</time>
      </trkpt>
      <trkpt lat="46.97924" lon="3.80512">
        <ele>184.71</ele>
        <time>2015-10-28T13:06:05Z</time>
      </trkpt>
      <trkpt lat="46.97905" lon="3.80512">
        <ele>187.59</ele>
        <time>2015-10-28T13:06:20Z</time>
      </trkpt>
      <trkpt lat="46.9789" lon="3.80513">
        <ele>189.04</ele>
        <time>2015-10-28T13:06:33Z</time>
      </trkpt>
      <trkpt lat="46.97876" lon="3.80514">
        <ele>190.48</ele>
        <time>2015-10-28T13:06:46Z</time>
      </trkpt>
      <trkpt lat="46.97864" lon="3.80512">
        <ele>191.44</ele>
        <time>2015-10-28T13:06:58Z</time>
      </trkpt>
      <trkpt lat="46.97852" lon="3.80508">
        <ele>194.32</ele>
        <time>2015-10-28T13:07:12Z</time>
      </trkpt>
      <trkpt lat="46.97839" lon="3.80503">
        <ele>196.25</ele>
        <time>2015-10-28T13:07:26Z</time>
      </trkpt>
      <trkpt lat="46.97831" lon="3.80504">
        <ele>198.65</ele>
        <time>2015-10-28T13:07:41Z</time>
      </trkpt>
      <trkpt lat="46.97828" lon="3.805">
        <ele>199.61</ele>
        <time>2015-10-28T13:07:54Z</time>
      </trkpt>
      <trkpt lat="46.97824" lon="3.80487">
        <ele>197.21</ele>
        <time>2015-10-28T13:08:09Z</time>
      </trkpt>
      <trkpt lat="46.97822" lon="3.80474">
        <ele>196.25</ele>
        <time>2015-10-28T13:08:21Z</time>
      </trkpt>
      <trkpt lat="46.97821" lon="3.8046">
        <ele>197.21</ele>
        <time>2015-10-28T13:08:36Z</time>
      </trkpt>
      <trkpt lat="46.97819" lon="3.80456">
        <ele>196.73</ele>
        <time>2015-10-28T13:08:54Z</time>
      </trkpt>
      <trkpt lat="46.97818" lon="3.80444">
        <ele>196.73</ele>
        <time>2015-10-28T13:09:02Z</time>
      </trkpt>
      <trkpt lat="46.97815" lon="3.80427">
        <ele>194.32</ele>
        <time>2015-10-28T13:09:13Z</time>
      </trkpt>
      <trkpt lat="46.9781" lon="3.80405">
        <ele>189.04</ele>
        <time>2015-10-28T13:09:31Z</time>
      </trkpt>
      <trkpt lat="46.97808" lon="3.80387">
        <ele>187.59</ele>
        <time>2015-10-28T13:09:47Z</time>
      </trkpt>
      <trkpt lat="46.97806" lon="3.80366">
        <ele>184.23</ele>
        <time>2015-10-28T13:10:02Z</time>
      </trkpt>
      <trkpt lat="46.97805" lon="3.80343">
        <ele>180.38</ele>
        <time>2015-10-28T13:10:19Z</time>
      </trkpt>
      <trkpt lat="46.97801" lon="3.8032">
        <ele>177.02</ele>
        <time>2015-10-28T13:10:39Z</time>
      </trkpt>
      <trkpt lat="46.97796" lon="3.80292">
        <ele>173.66</ele>
        <time>2015-10-28T13:11:00Z</time>
      </trkpt>
      <trkpt lat="46.97794" lon="3.80285">
        <ele>172.21</ele>
        <time>2015-10-28T13:11:08Z</time>
      </trkpt>
      <trkpt lat="46.97783" lon="3.80258">
        <ele>171.25</ele>
        <time>2015-10-28T13:11:26Z</time>
      </trkpt>
      <trkpt lat="46.9777" lon="3.80247">
        <ele>172.21</ele>
        <time>2015-10-28T13:11:38Z</time>
      </trkpt>
      <trkpt lat="46.97759" lon="3.80223">
        <ele>172.69</ele>
        <time>2015-10-28T13:11:59Z</time>
      </trkpt>
      <trkpt lat="46.97757" lon="3.80199">
        <ele>179.42</ele>
        <time>2015-10-28T13:12:15Z</time>
      </trkpt>
      <trkpt lat="46.97753" lon="3.80182">
        <ele>179.42</ele>
        <time>2015-10-28T13:12:22Z</time>
      </trkpt>
      <trkpt lat="46.97751" lon="3.80169">
        <ele>179.9</ele>
        <time>2015-10-28T13:12:41Z</time>
      </trkpt>
      <trkpt lat="46.97751" lon="3.80169">
        <ele>179.9</ele>
        <time>2015-10-28T13:13:05Z</time>
      </trkpt>
      <trkpt lat="46.97751" lon="3.80169">
        <ele>179.9</ele>
        <time>2015-10-28T13:13:33Z</time>
      </trkpt>
      <trkpt lat="46.97751" lon="3.80169">
        <ele>179.9</ele>
        <time>2015-10-28T13:14:05Z</time>
      </trkpt>
      <trkpt lat="46.97751" lon="3.80163">
        <ele>178.46</ele>
        <time>2015-10-28T13:14:17Z</time>
      </trkpt>
      <trkpt lat="46.97752" lon="3.80161">
        <ele>177.98</ele>
        <time>2015-10-28T13:14:19Z</time>
      </trkpt>
      <trkpt lat="46.97752" lon="3.80149">
        <ele>175.58</ele>
        <time>2015-10-28T13:14:32Z</time>
      </trkpt>
      <trkpt lat="46.9775" lon="3.80132">
        <ele>177.02</ele>
        <time>2015-10-28T13:14:42Z</time>
      </trkpt>
      <trkpt lat="46.97751" lon="3.80118">
        <ele>179.42</ele>
        <time>2015-10-28T13:14:52Z</time>
      </trkpt>
      <trkpt lat="46.97747" lon="3.80084">
        <ele>181.83</ele>
        <time>2015-10-28T13:15:15Z</time>
      </trkpt>
      <trkpt lat="46.97748" lon="3.80049">
        <ele>183.27</ele>
        <time>2015-10-28T13:15:36Z</time>
      </trkpt>
      <trkpt lat="46.97747" lon="3.80033">
        <ele>184.23</ele>
        <time>2015-10-28T13:15:46Z</time>
      </trkpt>
      <trkpt lat="46.97739" lon="3.80001">
        <ele>184.71</ele>
        <time>2015-10-28T13:16:06Z</time>
      </trkpt>
      <trkpt lat="46.97738" lon="3.79975">
        <ele>185.67</ele>
        <time>2015-10-28T13:16:23Z</time>
      </trkpt>
      <trkpt lat="46.97731" lon="3.79948">
        <ele>190.96</ele>
        <time>2015-10-28T13:16:42Z</time>
      </trkpt>
      <trkpt lat="46.97723" lon="3.79916">
        <ele>195.28</ele>
        <time>2015-10-28T13:17:04Z</time>
      </trkpt>
      <trkpt lat="46.97716" lon="3.79884">
        <ele>196.73</ele>
        <time>2015-10-28T13:17:29Z</time>
      </trkpt>
      <trkpt lat="46.97701" lon="3.79856">
        <ele>199.61</ele>
        <time>2015-10-28T13:17:50Z</time>
      </trkpt>
      <trkpt lat="46.97687" lon="3.7984">
        <ele>199.61</ele>
        <time>2015-10-28T13:18:09Z</time>
      </trkpt>
      <trkpt lat="46.97672" lon="3.7982">
        <ele>201.53</ele>
        <time>2015-10-28T13:18:34Z</time>
      </trkpt>
      <trkpt lat="46.97658" lon="3.79813">
        <ele>202.98</ele>
        <time>2015-10-28T13:18:55Z</time>
      </trkpt>
      <trkpt lat="46.97647" lon="3.79798">
        <ele>207.3</ele>
        <time>2015-10-28T13:19:13Z</time>
      </trkpt>
      <trkpt lat="46.97645" lon="3.79795">
        <ele>207.3</ele>
        <time>2015-10-28T13:19:15Z</time>
      </trkpt>
      <trkpt lat="46.97632" lon="3.79793">
        <ele>209.22</ele>
        <time>2015-10-28T13:19:32Z</time>
      </trkpt>
      <trkpt lat="46.9762" lon="3.79794">
        <ele>209.7</ele>
        <time>2015-10-28T13:19:48Z</time>
      </trkpt>
      <trkpt lat="46.97619" lon="3.79794">
        <ele>210.19</ele>
        <time>2015-10-28T13:19:50Z</time>
      </trkpt>
      <trkpt lat="46.97611" lon="3.79797">
        <ele>211.63</ele>
        <time>2015-10-28T13:20:02Z</time>
      </trkpt>
      <trkpt lat="46.97608" lon="3.79804">
        <ele>213.07</ele>
        <time>2015-10-28T13:20:09Z</time>
      </trkpt>
      <trkpt lat="46.97601" lon="3.7982">
        <ele>213.55</ele>
        <time>2015-10-28T13:20:24Z</time>
      </trkpt>
      <trkpt lat="46.97599" lon="3.79827">
        <ele>213.55</ele>
        <time>2015-10-28T13:20:31Z</time>
      </trkpt>
      <trkpt lat="46.97596" lon="3.79829">
        <ele>213.55</ele>
        <time>2015-10-28T13:20:35Z</time>
      </trkpt>
      <trkpt lat="46.97588" lon="3.7983">
        <ele>213.55</ele>
        <time>2015-10-28T13:20:51Z</time>
      </trkpt>
      <trkpt lat="46.97586" lon="3.79829">
        <ele>214.03</ele>
        <time>2015-10-28T13:21:07Z</time>
      </trkpt>
      <trkpt lat="46.97584" lon="3.79824">
        <ele>214.03</ele>
        <time>2015-10-28T13:21:23Z</time>
      </trkpt>
      <trkpt lat="46.97585" lon="3.79825">
        <ele>214.51</ele>
        <time>2015-10-28T13:21:38Z</time>
      </trkpt>
      <trkpt lat="46.97585" lon="3.79825">
        <ele>214.51</ele>
        <time>2015-10-28T13:22:13Z</time>
      </trkpt>
      <trkpt lat="46.97585" lon="3.79825">
        <ele>214.51</ele>
        <time>2015-10-28T13:22:35Z</time>
      </trkpt>
      <trkpt lat="46.97584" lon="3.79823">
        <ele>214.51</ele>
        <time>2015-10-28T13:22:37Z</time>
      </trkpt>
      <trkpt lat="46.97573" lon="3.79807">
        <ele>214.51</ele>
        <time>2015-10-28T13:22:51Z</time>
      </trkpt>
      <trkpt lat="46.97558" lon="3.79789">
        <ele>215.47</ele>
        <time>2015-10-28T13:23:07Z</time>
      </trkpt>
      <trkpt lat="46.97545" lon="3.79778">
        <ele>216.43</ele>
        <time>2015-10-28T13:23:22Z</time>
      </trkpt>
      <trkpt lat="46.97532" lon="3.79768">
        <ele>217.88</ele>
        <time>2015-10-28T13:23:36Z</time>
      </trkpt>
      <trkpt lat="46.97525" lon="3.79752">
        <ele>225.09</ele>
        <time>2015-10-28T13:23:51Z</time>
      </trkpt>
      <trkpt lat="46.97504" lon="3.7974">
        <ele>227.01</ele>
        <time>2015-10-28T13:24:07Z</time>
      </trkpt>
      <trkpt lat="46.97489" lon="3.79726">
        <ele>226.53</ele>
        <time>2015-10-28T13:24:22Z</time>
      </trkpt>
      <trkpt lat="46.97482" lon="3.79703">
        <ele>227.49</ele>
        <time>2015-10-28T13:24:37Z</time>
      </trkpt>
      <trkpt lat="46.97478" lon="3.79684">
        <ele>226.53</ele>
        <time>2015-10-28T13:24:51Z</time>
      </trkpt>
      <trkpt lat="46.9747" lon="3.79663">
        <ele>224.61</ele>
        <time>2015-10-28T13:25:04Z</time>
      </trkpt>
      <trkpt lat="46.97464" lon="3.79643">
        <ele>224.61</ele>
        <time>2015-10-28T13:25:17Z</time>
      </trkpt>
      <trkpt lat="46.97456" lon="3.7962">
        <ele>227.01</ele>
        <time>2015-10-28T13:25:31Z</time>
      </trkpt>
      <trkpt lat="46.97448" lon="3.79598">
        <ele>228.45</ele>
        <time>2015-10-28T13:25:46Z</time>
      </trkpt>
      <trkpt lat="46.9744" lon="3.79576">
        <ele>229.41</ele>
        <time>2015-10-28T13:26:00Z</time>
      </trkpt>
      <trkpt lat="46.97431" lon="3.79549">
        <ele>228.93</ele>
        <time>2015-10-28T13:26:16Z</time>
      </trkpt>
      <trkpt lat="46.97423" lon="3.79528">
        <ele>228.93</ele>
        <time>2015-10-28T13:26:30Z</time>
      </trkpt>
      <trkpt lat="46.97415" lon="3.79503">
        <ele>226.05</ele>
        <time>2015-10-28T13:26:45Z</time>
      </trkpt>
      <trkpt lat="46.97401" lon="3.7948">
        <ele>226.05</ele>
        <time>2015-10-28T13:27:03Z</time>
      </trkpt>
      <trkpt lat="46.97389" lon="3.7945">
        <ele>226.05</ele>
        <time>2015-10-28T13:27:22Z</time>
      </trkpt>
      <trkpt lat="46.97378" lon="3.79421">
        <ele>225.57</ele>
        <time>2015-10-28T13:27:40Z</time>
      </trkpt>
      <trkpt lat="46.97366" lon="3.79393">
        <ele>226.05</ele>
        <time>2015-10-28T13:27:59Z</time>
      </trkpt>
      <trkpt lat="46.97359" lon="3.7938">
        <ele>227.01</ele>
        <time>2015-10-28T13:28:09Z</time>
      </trkpt>
      <trkpt lat="46.97356" lon="3.7937">
        <ele>227.97</ele>
        <time>2015-10-28T13:28:26Z</time>
      </trkpt>
      <trkpt lat="46.9734" lon="3.79345">
        <ele>229.89</ele>
        <time>2015-10-28T13:28:42Z</time>
      </trkpt>
      <trkpt lat="46.9733" lon="3.79331">
        <ele>230.37</ele>
        <time>2015-10-28T13:29:01Z</time>
      </trkpt>
      <trkpt lat="46.97315" lon="3.79304">
        <ele>229.41</ele>
        <time>2015-10-28T13:29:19Z</time>
      </trkpt>
      <trkpt lat="46.97315" lon="3.79272">
        <ele>228.45</ele>
        <time>2015-10-28T13:29:39Z</time>
      </trkpt>
      <trkpt lat="46.97323" lon="3.79242">
        <ele>228.93</ele>
        <time>2015-10-28T13:29:56Z</time>
      </trkpt>
      <trkpt lat="46.97324" lon="3.79238">
        <ele>228.45</ele>
        <time>2015-10-28T13:29:59Z</time>
      </trkpt>
      <trkpt lat="46.97321" lon="3.79201">
        <ele>223.16</ele>
        <time>2015-10-28T13:30:17Z</time>
      </trkpt>
      <trkpt lat="46.97318" lon="3.79195">
        <ele>222.2</ele>
        <time>2015-10-28T13:30:21Z</time>
      </trkpt>
      <trkpt lat="46.97312" lon="3.79193">
        <ele>220.28</ele>
        <time>2015-10-28T13:30:42Z</time>
      </trkpt>
      <trkpt lat="46.97304" lon="3.79189">
        <ele>219.32</ele>
        <time>2015-10-28T13:30:58Z</time>
      </trkpt>
      <trkpt lat="46.97303" lon="3.79188">
        <ele>219.32</ele>
        <time>2015-10-28T13:31:13Z</time>
      </trkpt>
      <trkpt lat="46.97306" lon="3.7919">
        <ele>219.32</ele>
        <time>2015-10-28T13:31:25Z</time>
      </trkpt>
      <trkpt lat="46.97314" lon="3.79198">
        <ele>220.76</ele>
        <time>2015-10-28T13:31:38Z</time>
      </trkpt>
      <trkpt lat="46.97316" lon="3.79194">
        <ele>219.8</ele>
        <time>2015-10-28T13:31:52Z</time>
      </trkpt>
      <trkpt lat="46.97313" lon="3.79187">
        <ele>219.8</ele>
        <time>2015-10-28T13:31:58Z</time>
      </trkpt>
      <trkpt lat="46.97312" lon="3.79182">
        <ele>219.8</ele>
        <time>2015-10-28T13:32:01Z</time>
      </trkpt>
      <trkpt lat="46.97307" lon="3.79166">
        <ele>219.32</ele>
        <time>2015-10-28T13:32:17Z</time>
      </trkpt>
      <trkpt lat="46.97292" lon="3.79143">
        <ele>221.72</ele>
        <time>2015-10-28T13:32:36Z</time>
      </trkpt>
      <trkpt lat="46.9729" lon="3.79142">
        <ele>222.2</ele>
        <time>2015-10-28T13:32:39Z</time>
      </trkpt>
      <trkpt lat="46.97273" lon="3.79123">
        <ele>223.16</ele>
        <time>2015-10-28T13:32:56Z</time>
      </trkpt>
      <trkpt lat="46.97269" lon="3.79113">
        <ele>217.88</ele>
        <time>2015-10-28T13:33:09Z</time>
      </trkpt>
      <trkpt lat="46.97267" lon="3.7911">
        <ele>212.11</ele>
        <time>2015-10-28T13:33:22Z</time>
      </trkpt>
      <trkpt lat="46.97268" lon="3.79115">
        <ele>210.19</ele>
        <time>2015-10-28T13:33:27Z</time>
      </trkpt>
      <trkpt lat="46.97268" lon="3.79117">
        <ele>210.19</ele>
        <time>2015-10-28T13:33:39Z</time>
      </trkpt>
      <trkpt lat="46.97264" lon="3.79122">
        <ele>210.67</ele>
        <time>2015-10-28T13:33:45Z</time>
      </trkpt>
      <trkpt lat="46.97256" lon="3.7914">
        <ele>212.59</ele>
        <time>2015-10-28T13:33:59Z</time>
      </trkpt>
      <trkpt lat="46.97252" lon="3.79146">
        <ele>214.99</ele>
        <time>2015-10-28T13:34:17Z</time>
      </trkpt>
      <trkpt lat="46.97253" lon="3.79149">
        <ele>217.4</ele>
        <time>2015-10-28T13:34:33Z</time>
      </trkpt>
      <trkpt lat="46.97254" lon="3.7916">
        <ele>219.32</ele>
        <time>2015-10-28T13:34:40Z</time>
      </trkpt>
      <trkpt lat="46.97252" lon="3.79167">
        <ele>219.32</ele>
        <time>2015-10-28T13:34:44Z</time>
      </trkpt>
      <trkpt lat="46.97246" lon="3.79184">
        <ele>217.4</ele>
        <time>2015-10-28T13:34:57Z</time>
      </trkpt>
      <trkpt lat="46.97247" lon="3.79201">
        <ele>219.32</ele>
        <time>2015-10-28T13:35:09Z</time>
      </trkpt>
      <trkpt lat="46.97247" lon="3.79202">
        <ele>219.32</ele>
        <time>2015-10-28T13:35:10Z</time>
      </trkpt>
      <trkpt lat="46.97244" lon="3.79207">
        <ele>220.76</ele>
        <time>2015-10-28T13:35:18Z</time>
      </trkpt>
      <trkpt lat="46.97237" lon="3.79219">
        <ele>222.2</ele>
        <time>2015-10-28T13:35:32Z</time>
      </trkpt>
      <trkpt lat="46.97236" lon="3.79218">
        <ele>222.68</ele>
        <time>2015-10-28T13:35:46Z</time>
      </trkpt>
      <trkpt lat="46.97224" lon="3.79228">
        <ele>223.64</ele>
        <time>2015-10-28T13:36:00Z</time>
      </trkpt>
      <trkpt lat="46.97222" lon="3.7923">
        <ele>224.12</ele>
        <time>2015-10-28T13:36:02Z</time>
      </trkpt>
      <trkpt lat="46.97204" lon="3.79225">
        <ele>225.57</ele>
        <time>2015-10-28T13:36:17Z</time>
      </trkpt>
      <trkpt lat="46.97186" lon="3.7921">
        <ele>227.01</ele>
        <time>2015-10-28T13:36:38Z</time>
      </trkpt>
      <trkpt lat="46.97169" lon="3.79192">
        <ele>228.45</ele>
        <time>2015-10-28T13:36:55Z</time>
      </trkpt>
      <trkpt lat="46.97151" lon="3.79171">
        <ele>230.85</ele>
        <time>2015-10-28T13:37:13Z</time>
      </trkpt>
      <trkpt lat="46.97141" lon="3.79152">
        <ele>232.3</ele>
        <time>2015-10-28T13:37:29Z</time>
      </trkpt>
      <trkpt lat="46.97135" lon="3.79144">
        <ele>231.81</ele>
        <time>2015-10-28T13:37:35Z</time>
      </trkpt>
      <trkpt lat="46.9713" lon="3.7914">
        <ele>232.78</ele>
        <time>2015-10-28T13:37:39Z</time>
      </trkpt>
      <trkpt lat="46.97119" lon="3.79121">
        <ele>233.26</ele>
        <time>2015-10-28T13:37:55Z</time>
      </trkpt>
      <trkpt lat="46.97109" lon="3.79107">
        <ele>228.45</ele>
        <time>2015-10-28T13:38:10Z</time>
      </trkpt>
      <trkpt lat="46.97109" lon="3.79107">
        <ele>228.45</ele>
        <time>2015-10-28T13:38:28Z</time>
      </trkpt>
      <trkpt lat="46.97103" lon="3.79108">
        <ele>227.49</ele>
        <time>2015-10-28T13:38:34Z</time>
      </trkpt>
      <trkpt lat="46.97089" lon="3.79118">
        <ele>228.93</ele>
        <time>2015-10-28T13:38:49Z</time>
      </trkpt>
      <trkpt lat="46.97072" lon="3.79139">
        <ele>230.85</ele>
        <time>2015-10-28T13:39:07Z</time>
      </trkpt>
      <trkpt lat="46.97051" lon="3.79151">
        <ele>235.18</ele>
        <time>2015-10-28T13:39:26Z</time>
      </trkpt>
      <trkpt lat="46.97028" lon="3.7915">
        <ele>238.54</ele>
        <time>2015-10-28T13:39:44Z</time>
      </trkpt>
      <trkpt lat="46.97019" lon="3.79149">
        <ele>239.99</ele>
        <time>2015-10-28T13:39:52Z</time>
      </trkpt>
      <trkpt lat="46.97003" lon="3.79145">
        <ele>240.47</ele>
        <time>2015-10-28T13:40:08Z</time>
      </trkpt>
      <trkpt lat="46.96978" lon="3.79132">
        <ele>239.99</ele>
        <time>2015-10-28T13:40:27Z</time>
      </trkpt>
      <trkpt lat="46.96956" lon="3.7913">
        <ele>238.54</ele>
        <time>2015-10-28T13:40:42Z</time>
      </trkpt>
      <trkpt lat="46.96941" lon="3.7914">
        <ele>238.54</ele>
        <time>2015-10-28T13:40:56Z</time>
      </trkpt>
      <trkpt lat="46.96938" lon="3.79143">
        <ele>239.02</ele>
        <time>2015-10-28T13:40:59Z</time>
      </trkpt>
      <trkpt lat="46.96933" lon="3.79156">
        <ele>239.02</ele>
        <time>2015-10-28T13:41:08Z</time>
      </trkpt>
      <trkpt lat="46.96933" lon="3.79172">
        <ele>239.51</ele>
        <time>2015-10-28T13:41:23Z</time>
      </trkpt>
      <trkpt lat="46.96933" lon="3.79169">
        <ele>239.99</ele>
        <time>2015-10-28T13:41:40Z</time>
      </trkpt>
      <trkpt lat="46.96929" lon="3.79176">
        <ele>239.51</ele>
        <time>2015-10-28T13:41:53Z</time>
      </trkpt>
      <trkpt lat="46.96928" lon="3.79182">
        <ele>239.02</ele>
        <time>2015-10-28T13:41:59Z</time>
      </trkpt>
      <trkpt lat="46.96921" lon="3.79199">
        <ele>237.58</ele>
        <time>2015-10-28T13:42:14Z</time>
      </trkpt>
      <trkpt lat="46.96921" lon="3.79202">
        <ele>237.58</ele>
        <time>2015-10-28T13:42:16Z</time>
      </trkpt>
      <trkpt lat="46.96905" lon="3.79223">
        <ele>236.14</ele>
        <time>2015-10-28T13:42:35Z</time>
      </trkpt>
      <trkpt lat="46.96899" lon="3.79229">
        <ele>234.22</ele>
        <time>2015-10-28T13:42:49Z</time>
      </trkpt>
      <trkpt lat="46.96896" lon="3.79233">
        <ele>233.74</ele>
        <time>2015-10-28T13:43:10Z</time>
      </trkpt>
      <trkpt lat="46.96895" lon="3.79238">
        <ele>232.3</ele>
        <time>2015-10-28T13:43:32Z</time>
      </trkpt>
      <trkpt lat="46.96895" lon="3.79238">
        <ele>232.3</ele>
        <time>2015-10-28T13:43:55Z</time>
      </trkpt>
      <trkpt lat="46.96887" lon="3.79242">
        <ele>231.81</ele>
        <time>2015-10-28T13:44:16Z</time>
      </trkpt>
      <trkpt lat="46.96869" lon="3.79242">
        <ele>229.89</ele>
        <time>2015-10-28T13:44:32Z</time>
      </trkpt>
      <trkpt lat="46.96856" lon="3.79241">
        <ele>229.89</ele>
        <time>2015-10-28T13:44:46Z</time>
      </trkpt>
      <trkpt lat="46.96861" lon="3.79247">
        <ele>231.81</ele>
        <time>2015-10-28T13:44:59Z</time>
      </trkpt>
      <trkpt lat="46.96849" lon="3.79238">
        <ele>230.37</ele>
        <time>2015-10-28T13:45:11Z</time>
      </trkpt>
      <trkpt lat="46.96848" lon="3.79239">
        <ele>230.85</ele>
        <time>2015-10-28T13:45:31Z</time>
      </trkpt>
      <trkpt lat="46.96837" lon="3.79234">
        <ele>230.37</ele>
        <time>2015-10-28T13:46:01Z</time>
      </trkpt>
      <trkpt lat="46.9682" lon="3.79228">
        <ele>228.93</ele>
        <time>2015-10-28T13:46:17Z</time>
      </trkpt>
      <trkpt lat="46.96812" lon="3.79223">
        <ele>227.97</ele>
        <time>2015-10-28T13:46:25Z</time>
      </trkpt>
      <trkpt lat="46.96804" lon="3.79219">
        <ele>227.49</ele>
        <time>2015-10-28T13:46:31Z</time>
      </trkpt>
      <trkpt lat="46.96782" lon="3.79204">
        <ele>228.93</ele>
        <time>2015-10-28T13:46:50Z</time>
      </trkpt>
      <trkpt lat="46.96755" lon="3.7918">
        <ele>230.85</ele>
        <time>2015-10-28T13:47:10Z</time>
      </trkpt>
      <trkpt lat="46.96736" lon="3.79163">
        <ele>232.3</ele>
        <time>2015-10-28T13:47:29Z</time>
      </trkpt>
      <trkpt lat="46.96716" lon="3.79142">
        <ele>231.33</ele>
        <time>2015-10-28T13:47:47Z</time>
      </trkpt>
      <trkpt lat="46.96693" lon="3.79124">
        <ele>228.45</ele>
        <time>2015-10-28T13:48:04Z</time>
      </trkpt>
      <trkpt lat="46.96674" lon="3.79113">
        <ele>225.57</ele>
        <time>2015-10-28T13:48:21Z</time>
      </trkpt>
      <trkpt lat="46.96644" lon="3.79091">
        <ele>223.16</ele>
        <time>2015-10-28T13:48:44Z</time>
      </trkpt>
      <trkpt lat="46.96633" lon="3.79058">
        <ele>222.2</ele>
        <time>2015-10-28T13:49:01Z</time>
      </trkpt>
      <trkpt lat="46.96621" lon="3.79032">
        <ele>222.68</ele>
        <time>2015-10-28T13:49:17Z</time>
      </trkpt>
      <trkpt lat="46.9659" lon="3.79025">
        <ele>223.64</ele>
        <time>2015-10-28T13:49:37Z</time>
      </trkpt>
      <trkpt lat="46.96561" lon="3.79012">
        <ele>223.16</ele>
        <time>2015-10-28T13:49:57Z</time>
      </trkpt>
      <trkpt lat="46.96535" lon="3.78998">
        <ele>223.64</ele>
        <time>2015-10-28T13:50:19Z</time>
      </trkpt>
      <trkpt lat="46.96535" lon="3.78998">
        <ele>223.64</ele>
        <time>2015-10-28T13:50:40Z</time>
      </trkpt>
      <trkpt lat="46.96535" lon="3.78998">
        <ele>223.64</ele>
        <time>2015-10-28T13:50:42Z</time>
      </trkpt>
      <trkpt lat="46.96506" lon="3.78993">
        <ele>223.16</ele>
        <time>2015-10-28T13:51:01Z</time>
      </trkpt>
      <trkpt lat="46.96476" lon="3.7899">
        <ele>225.09</ele>
        <time>2015-10-28T13:51:21Z</time>
      </trkpt>
      <trkpt lat="46.96466" lon="3.78989">
        <ele>224.61</ele>
        <time>2015-10-28T13:51:38Z</time>
      </trkpt>
      <trkpt lat="46.96463" lon="3.78991">
        <ele>225.09</ele>
        <time>2015-10-28T13:51:44Z</time>
      </trkpt>
      <trkpt lat="46.96448" lon="3.78991">
        <ele>225.09</ele>
        <time>2015-10-28T13:51:58Z</time>
      </trkpt>
      <trkpt lat="46.96448" lon="3.78991">
        <ele>225.09</ele>
        <time>2015-10-28T13:52:03Z</time>
      </trkpt>
      <trkpt lat="46.96425" lon="3.78996">
        <ele>226.53</ele>
        <time>2015-10-28T13:52:19Z</time>
      </trkpt>
      <trkpt lat="46.96423" lon="3.78996">
        <ele>226.53</ele>
        <time>2015-10-28T13:52:34Z</time>
      </trkpt>
      <trkpt lat="46.96398" lon="3.78997">
        <ele>227.01</ele>
        <time>2015-10-28T13:52:52Z</time>
      </trkpt>
      <trkpt lat="46.96393" lon="3.79">
        <ele>225.57</ele>
        <time>2015-10-28T13:53:06Z</time>
      </trkpt>
      <trkpt lat="46.96375" lon="3.79">
        <ele>225.57</ele>
        <time>2015-10-28T13:53:18Z</time>
      </trkpt>
      <trkpt lat="46.96361" lon="3.79002">
        <ele>225.57</ele>
        <time>2015-10-28T13:53:35Z</time>
      </trkpt>
      <trkpt lat="46.96342" lon="3.79002">
        <ele>225.57</ele>
        <time>2015-10-28T13:53:49Z</time>
      </trkpt>
      <trkpt lat="46.96318" lon="3.79007">
        <ele>223.64</ele>
        <time>2015-10-28T13:54:04Z</time>
      </trkpt>
      <trkpt lat="46.9629" lon="3.79013">
        <ele>219.8</ele>
        <time>2015-10-28T13:54:23Z</time>
      </trkpt>
      <trkpt lat="46.96263" lon="3.79015">
        <ele>217.4</ele>
        <time>2015-10-28T13:54:44Z</time>
      </trkpt>
      <trkpt lat="46.96234" lon="3.79019">
        <ele>216.91</ele>
        <time>2015-10-28T13:55:01Z</time>
      </trkpt>
      <trkpt lat="46.96206" lon="3.7902">
        <ele>217.88</ele>
        <time>2015-10-28T13:55:20Z</time>
      </trkpt>
      <trkpt lat="46.96184" lon="3.79021">
        <ele>218.84</ele>
        <time>2015-10-28T13:55:36Z</time>
      </trkpt>
      <trkpt lat="46.96159" lon="3.79025">
        <ele>216.91</ele>
        <time>2015-10-28T13:55:57Z</time>
      </trkpt>
      <trkpt lat="46.96146" lon="3.79027">
        <ele>217.4</ele>
        <time>2015-10-28T13:56:09Z</time>
      </trkpt>
      <trkpt lat="46.96127" lon="3.79035">
        <ele>218.36</ele>
        <time>2015-10-28T13:56:25Z</time>
      </trkpt>
      <trkpt lat="46.96108" lon="3.79039">
        <ele>217.4</ele>
        <time>2015-10-28T13:56:41Z</time>
      </trkpt>
      <trkpt lat="46.96086" lon="3.79036">
        <ele>217.88</ele>
        <time>2015-10-28T13:56:58Z</time>
      </trkpt>
      <trkpt lat="46.96059" lon="3.79036">
        <ele>217.4</ele>
        <time>2015-10-28T13:57:15Z</time>
      </trkpt>
      <trkpt lat="46.96039" lon="3.79035">
        <ele>218.36</ele>
        <time>2015-10-28T13:57:31Z</time>
      </trkpt>
      <trkpt lat="46.96029" lon="3.79048">
        <ele>219.32</ele>
        <time>2015-10-28T13:57:44Z</time>
      </trkpt>
      <trkpt lat="46.96027" lon="3.7906">
        <ele>220.28</ele>
        <time>2015-10-28T13:58:00Z</time>
      </trkpt>
      <trkpt lat="46.96025" lon="3.7907">
        <ele>221.72</ele>
        <time>2015-10-28T13:58:12Z</time>
      </trkpt>
      <trkpt lat="46.96017" lon="3.79075">
        <ele>223.16</ele>
        <time>2015-10-28T13:58:20Z</time>
      </trkpt>
      <trkpt lat="46.96006" lon="3.79078">
        <ele>224.12</ele>
        <time>2015-10-28T13:58:32Z</time>
      </trkpt>
      <trkpt lat="46.95987" lon="3.79081">
        <ele>225.09</ele>
        <time>2015-10-28T13:58:47Z</time>
      </trkpt>
      <trkpt lat="46.9597" lon="3.79087">
        <ele>223.16</ele>
        <time>2015-10-28T13:59:01Z</time>
      </trkpt>
      <trkpt lat="46.95961" lon="3.7909">
        <ele>223.16</ele>
        <time>2015-10-28T13:59:08Z</time>
      </trkpt>
      <trkpt lat="46.95957" lon="3.79095">
        <ele>223.16</ele>
        <time>2015-10-28T13:59:12Z</time>
      </trkpt>
      <trkpt lat="46.95944" lon="3.79116">
        <ele>223.16</ele>
        <time>2015-10-28T13:59:26Z</time>
      </trkpt>
      <trkpt lat="46.95936" lon="3.79138">
        <ele>222.2</ele>
        <time>2015-10-28T13:59:40Z</time>
      </trkpt>
      <trkpt lat="46.95929" lon="3.79165">
        <ele>224.61</ele>
        <time>2015-10-28T13:59:57Z</time>
      </trkpt>
      <trkpt lat="46.95921" lon="3.79197">
        <ele>230.37</ele>
        <time>2015-10-28T14:00:16Z</time>
      </trkpt>
      <trkpt lat="46.95924" lon="3.79215">
        <ele>228.93</ele>
        <time>2015-10-28T14:00:25Z</time>
      </trkpt>
      <trkpt lat="46.95938" lon="3.79248">
        <ele>225.57</ele>
        <time>2015-10-28T14:00:43Z</time>
      </trkpt>
      <trkpt lat="46.95951" lon="3.79275">
        <ele>226.53</ele>
        <time>2015-10-28T14:01:00Z</time>
      </trkpt>
      <trkpt lat="46.95964" lon="3.79297">
        <ele>226.05</ele>
        <time>2015-10-28T14:01:16Z</time>
      </trkpt>
      <trkpt lat="46.95974" lon="3.79318">
        <ele>224.12</ele>
        <time>2015-10-28T14:01:31Z</time>
      </trkpt>
      <trkpt lat="46.95986" lon="3.7934">
        <ele>221.24</ele>
        <time>2015-10-28T14:01:47Z</time>
      </trkpt>
      <trkpt lat="46.95998" lon="3.79367">
        <ele>218.36</ele>
        <time>2015-10-28T14:02:04Z</time>
      </trkpt>
      <trkpt lat="46.96002" lon="3.79391">
        <ele>220.28</ele>
        <time>2015-10-28T14:02:19Z</time>
      </trkpt>
      <trkpt lat="46.96004" lon="3.79408">
        <ele>224.12</ele>
        <time>2015-10-28T14:02:31Z</time>
      </trkpt>
      <trkpt lat="46.96006" lon="3.79417">
        <ele>225.09</ele>
        <time>2015-10-28T14:02:42Z</time>
      </trkpt>
      <trkpt lat="46.96014" lon="3.7945">
        <ele>223.64</ele>
        <time>2015-10-28T14:02:58Z</time>
      </trkpt>
      <trkpt lat="46.9602" lon="3.7948">
        <ele>222.2</ele>
        <time>2015-10-28T14:03:15Z</time>
      </trkpt>
      <trkpt lat="46.96025" lon="3.79505">
        <ele>220.76</ele>
        <time>2015-10-28T14:03:29Z</time>
      </trkpt>
      <trkpt lat="46.96032" lon="3.79535">
        <ele>219.32</ele>
        <time>2015-10-28T14:03:45Z</time>
      </trkpt>
      <trkpt lat="46.96037" lon="3.79559">
        <ele>220.28</ele>
        <time>2015-10-28T14:04:00Z</time>
      </trkpt>
      <trkpt lat="46.96042" lon="3.7959">
        <ele>221.72</ele>
        <time>2015-10-28T14:04:16Z</time>
      </trkpt>
      <trkpt lat="46.96046" lon="3.79617">
        <ele>221.72</ele>
        <time>2015-10-28T14:04:30Z</time>
      </trkpt>
      <trkpt lat="46.96049" lon="3.79638">
        <ele>220.76</ele>
        <time>2015-10-28T14:04:43Z</time>
      </trkpt>
      <trkpt lat="46.96051" lon="3.79661">
        <ele>220.28</ele>
        <time>2015-10-28T14:04:57Z</time>
      </trkpt>
      <trkpt lat="46.9605" lon="3.79682">
        <ele>220.76</ele>
        <time>2015-10-28T14:05:10Z</time>
      </trkpt>
      <trkpt lat="46.96045" lon="3.79706">
        <ele>221.72</ele>
        <time>2015-10-28T14:05:23Z</time>
      </trkpt>
      <trkpt lat="46.9604" lon="3.79731">
        <ele>221.72</ele>
        <time>2015-10-28T14:05:38Z</time>
      </trkpt>
      <trkpt lat="46.96044" lon="3.7976">
        <ele>217.4</ele>
        <time>2015-10-28T14:05:52Z</time>
      </trkpt>
      <trkpt lat="46.96051" lon="3.79781">
        <ele>216.91</ele>
        <time>2015-10-28T14:06:06Z</time>
      </trkpt>
      <trkpt lat="46.96055" lon="3.79785">
        <ele>216.91</ele>
        <time>2015-10-28T14:06:09Z</time>
      </trkpt>
      <trkpt lat="46.96069" lon="3.79808">
        <ele>217.4</ele>
        <time>2015-10-28T14:06:25Z</time>
      </trkpt>
      <trkpt lat="46.96083" lon="3.79823">
        <ele>217.4</ele>
        <time>2015-10-28T14:06:39Z</time>
      </trkpt>
      <trkpt lat="46.96097" lon="3.79842">
        <ele>218.84</ele>
        <time>2015-10-28T14:06:53Z</time>
      </trkpt>
      <trkpt lat="46.96109" lon="3.79856">
        <ele>219.8</ele>
        <time>2015-10-28T14:07:06Z</time>
      </trkpt>
      <trkpt lat="46.96111" lon="3.79856">
        <ele>219.8</ele>
        <time>2015-10-28T14:07:08Z</time>
      </trkpt>
      <trkpt lat="46.96125" lon="3.79871">
        <ele>219.32</ele>
        <time>2015-10-28T14:07:22Z</time>
      </trkpt>
      <trkpt lat="46.96136" lon="3.79884">
        <ele>219.8</ele>
        <time>2015-10-28T14:07:33Z</time>
      </trkpt>
      <trkpt lat="46.96145" lon="3.79895">
        <ele>219.8</ele>
        <time>2015-10-28T14:07:43Z</time>
      </trkpt>
      <trkpt lat="46.96159" lon="3.7991">
        <ele>220.28</ele>
        <time>2015-10-28T14:07:57Z</time>
      </trkpt>
      <trkpt lat="46.96178" lon="3.79928">
        <ele>220.76</ele>
        <time>2015-10-28T14:08:14Z</time>
      </trkpt>
      <trkpt lat="46.96192" lon="3.79942">
        <ele>222.68</ele>
        <time>2015-10-28T14:08:27Z</time>
      </trkpt>
      <trkpt lat="46.96209" lon="3.79953">
        <ele>224.61</ele>
        <time>2015-10-28T14:08:41Z</time>
      </trkpt>
      <trkpt lat="46.96225" lon="3.79966">
        <ele>225.57</ele>
        <time>2015-10-28T14:08:55Z</time>
      </trkpt>
      <trkpt lat="46.96239" lon="3.79978">
        <ele>226.05</ele>
        <time>2015-10-28T14:09:08Z</time>
      </trkpt>
      <trkpt lat="46.96253" lon="3.79989">
        <ele>227.49</ele>
        <time>2015-10-28T14:09:21Z</time>
      </trkpt>
      <trkpt lat="46.96268" lon="3.80002">
        <ele>228.93</ele>
        <time>2015-10-28T14:09:35Z</time>
      </trkpt>
      <trkpt lat="46.96281" lon="3.80012">
        <ele>227.97</ele>
        <time>2015-10-28T14:09:47Z</time>
      </trkpt>
      <trkpt lat="46.96293" lon="3.8002">
        <ele>226.53</ele>
        <time>2015-10-28T14:09:58Z</time>
      </trkpt>
      <trkpt lat="46.96308" lon="3.80029">
        <ele>225.09</ele>
        <time>2015-10-28T14:10:11Z</time>
      </trkpt>
      <trkpt lat="46.9632" lon="3.80037">
        <ele>224.61</ele>
        <time>2015-10-28T14:10:22Z</time>
      </trkpt>
      <trkpt lat="46.96327" lon="3.80049">
        <ele>224.61</ele>
        <time>2015-10-28T14:10:31Z</time>
      </trkpt>
      <trkpt lat="46.96331" lon="3.80071">
        <ele>224.12</ele>
        <time>2015-10-28T14:10:45Z</time>
      </trkpt>
      <trkpt lat="46.96331" lon="3.80085">
        <ele>224.61</ele>
        <time>2015-10-28T14:10:53Z</time>
      </trkpt>
      <trkpt lat="46.96332" lon="3.80092">
        <ele>224.61</ele>
        <time>2015-10-28T14:10:57Z</time>
      </trkpt>
      <trkpt lat="46.96333" lon="3.80119">
        <ele>223.64</ele>
        <time>2015-10-28T14:11:12Z</time>
      </trkpt>
      <trkpt lat="46.96333" lon="3.80147">
        <ele>221.72</ele>
        <time>2015-10-28T14:11:28Z</time>
      </trkpt>
      <trkpt lat="46.96333" lon="3.80178">
        <ele>219.8</ele>
        <time>2015-10-28T14:11:44Z</time>
      </trkpt>
      <trkpt lat="46.96332" lon="3.80205">
        <ele>219.8</ele>
        <time>2015-10-28T14:11:59Z</time>
      </trkpt>
      <trkpt lat="46.96332" lon="3.80207">
        <ele>219.8</ele>
        <time>2015-10-28T14:12:00Z</time>
      </trkpt>
      <trkpt lat="46.96334" lon="3.80217">
        <ele>219.8</ele>
        <time>2015-10-28T14:12:05Z</time>
      </trkpt>
      <trkpt lat="46.96336" lon="3.80248">
        <ele>217.4</ele>
        <time>2015-10-28T14:12:21Z</time>
      </trkpt>
      <trkpt lat="46.96339" lon="3.80269">
        <ele>217.4</ele>
        <time>2015-10-28T14:12:33Z</time>
      </trkpt>
      <trkpt lat="46.9634" lon="3.8028">
        <ele>219.32</ele>
        <time>2015-10-28T14:12:38Z</time>
      </trkpt>
      <trkpt lat="46.96343" lon="3.8029">
        <ele>220.76</ele>
        <time>2015-10-28T14:12:52Z</time>
      </trkpt>
      <trkpt lat="46.96346" lon="3.80293">
        <ele>221.72</ele>
        <time>2015-10-28T14:13:08Z</time>
      </trkpt>
      <trkpt lat="46.96346" lon="3.80293">
        <ele>221.72</ele>
        <time>2015-10-28T14:13:31Z</time>
      </trkpt>
      <trkpt lat="46.96346" lon="3.80294">
        <ele>221.24</ele>
        <time>2015-10-28T14:13:54Z</time>
      </trkpt>
      <trkpt lat="46.96346" lon="3.80293">
        <ele>221.72</ele>
        <time>2015-10-28T14:14:15Z</time>
      </trkpt>
      <trkpt lat="46.96347" lon="3.80294">
        <ele>221.72</ele>
        <time>2015-10-28T14:14:38Z</time>
      </trkpt>
      <trkpt lat="46.96347" lon="3.80295">
        <ele>221.72</ele>
        <time>2015-10-28T14:15:18Z</time>
      </trkpt>
      <trkpt lat="46.9635" lon="3.80295">
        <ele>222.2</ele>
        <time>2015-10-28T14:15:30Z</time>
      </trkpt>
      <trkpt lat="46.96372" lon="3.80294">
        <ele>220.76</ele>
        <time>2015-10-28T14:15:46Z</time>
      </trkpt>
      <trkpt lat="46.96389" lon="3.80285">
        <ele>217.88</ele>
        <time>2015-10-28T14:15:59Z</time>
      </trkpt>
      <trkpt lat="46.96406" lon="3.80275">
        <ele>217.4</ele>
        <time>2015-10-28T14:16:13Z</time>
      </trkpt>
      <trkpt lat="46.9642" lon="3.80264">
        <ele>217.88</ele>
        <time>2015-10-28T14:16:26Z</time>
      </trkpt>
      <trkpt lat="46.96424" lon="3.8026">
        <ele>217.88</ele>
        <time>2015-10-28T14:16:38Z</time>
      </trkpt>
      <trkpt lat="46.96431" lon="3.80255">
        <ele>218.36</ele>
        <time>2015-10-28T14:16:47Z</time>
      </trkpt>
      <trkpt lat="46.96444" lon="3.80238">
        <ele>218.84</ele>
        <time>2015-10-28T14:17:01Z</time>
      </trkpt>
      <trkpt lat="46.96456" lon="3.80229">
        <ele>220.28</ele>
        <time>2015-10-28T14:17:14Z</time>
      </trkpt>
      <trkpt lat="46.96467" lon="3.80225">
        <ele>221.72</ele>
        <time>2015-10-28T14:17:26Z</time>
      </trkpt>
      <trkpt lat="46.96475" lon="3.80221">
        <ele>223.16</ele>
        <time>2015-10-28T14:17:40Z</time>
      </trkpt>
      <trkpt lat="46.96483" lon="3.80223">
        <ele>221.24</ele>
        <time>2015-10-28T14:17:51Z</time>
      </trkpt>
      <trkpt lat="46.96496" lon="3.80224">
        <ele>222.2</ele>
        <time>2015-10-28T14:18:04Z</time>
      </trkpt>
      <trkpt lat="46.96503" lon="3.80222">
        <ele>222.68</ele>
        <time>2015-10-28T14:18:16Z</time>
      </trkpt>
      <trkpt lat="46.96505" lon="3.80225">
        <ele>221.24</ele>
        <time>2015-10-28T14:18:36Z</time>
      </trkpt>
      <trkpt lat="46.96508" lon="3.80227">
        <ele>220.76</ele>
        <time>2015-10-28T14:18:53Z</time>
      </trkpt>
      <trkpt lat="46.96514" lon="3.80225">
        <ele>219.32</ele>
        <time>2015-10-28T14:19:08Z</time>
      </trkpt>
      <trkpt lat="46.96516" lon="3.80224">
        <ele>219.8</ele>
        <time>2015-10-28T14:19:15Z</time>
      </trkpt>
      <trkpt lat="46.96515" lon="3.80221">
        <ele>219.8</ele>
        <time>2015-10-28T14:19:32Z</time>
      </trkpt>
      <trkpt lat="46.96512" lon="3.80219">
        <ele>218.84</ele>
        <time>2015-10-28T14:19:47Z</time>
      </trkpt>
      <trkpt lat="46.96511" lon="3.8022">
        <ele>219.32</ele>
        <time>2015-10-28T14:20:08Z</time>
      </trkpt>
      <trkpt lat="46.96515" lon="3.8023">
        <ele>220.28</ele>
        <time>2015-10-28T14:20:19Z</time>
      </trkpt>
      <trkpt lat="46.96518" lon="3.80237">
        <ele>221.24</ele>
        <time>2015-10-28T14:20:32Z</time>
      </trkpt>
      <trkpt lat="46.96518" lon="3.8024">
        <ele>221.24</ele>
        <time>2015-10-28T14:20:53Z</time>
      </trkpt>
      <trkpt lat="46.96518" lon="3.80247">
        <ele>219.32</ele>
        <time>2015-10-28T14:21:13Z</time>
      </trkpt>
      <trkpt lat="46.9652" lon="3.80261">
        <ele>217.4</ele>
        <time>2015-10-28T14:21:32Z</time>
      </trkpt>
      <trkpt lat="46.96523" lon="3.80276">
        <ele>215.47</ele>
        <time>2015-10-28T14:21:46Z</time>
      </trkpt>
      <trkpt lat="46.96524" lon="3.80281">
        <ele>215.47</ele>
        <time>2015-10-28T14:21:58Z</time>
      </trkpt>
      <trkpt lat="46.96529" lon="3.80301">
        <ele>214.03</ele>
        <time>2015-10-28T14:22:12Z</time>
      </trkpt>
      <trkpt lat="46.96529" lon="3.80305">
        <ele>213.55</ele>
        <time>2015-10-28T14:22:15Z</time>
      </trkpt>
      <trkpt lat="46.96535" lon="3.8033">
        <ele>213.55</ele>
        <time>2015-10-28T14:22:31Z</time>
      </trkpt>
      <trkpt lat="46.96536" lon="3.80334">
        <ele>214.03</ele>
        <time>2015-10-28T14:22:33Z</time>
      </trkpt>
      <trkpt lat="46.96541" lon="3.80365">
        <ele>215.95</ele>
        <time>2015-10-28T14:22:49Z</time>
      </trkpt>
      <trkpt lat="46.96543" lon="3.80391">
        <ele>216.43</ele>
        <time>2015-10-28T14:23:05Z</time>
      </trkpt>
      <trkpt lat="46.9654" lon="3.80413">
        <ele>218.36</ele>
        <time>2015-10-28T14:23:19Z</time>
      </trkpt>
      <trkpt lat="46.96536" lon="3.80432">
        <ele>221.72</ele>
        <time>2015-10-28T14:23:33Z</time>
      </trkpt>
      <trkpt lat="46.96531" lon="3.80458">
        <ele>223.64</ele>
        <time>2015-10-28T14:23:47Z</time>
      </trkpt>
      <trkpt lat="46.96528" lon="3.80488">
        <ele>222.68</ele>
        <time>2015-10-28T14:24:03Z</time>
      </trkpt>
      <trkpt lat="46.96522" lon="3.80518">
        <ele>224.12</ele>
        <time>2015-10-28T14:24:20Z</time>
      </trkpt>
      <trkpt lat="46.96517" lon="3.80546">
        <ele>224.61</ele>
        <time>2015-10-28T14:24:35Z</time>
      </trkpt>
      <trkpt lat="46.96514" lon="3.80556">
        <ele>223.64</ele>
        <time>2015-10-28T14:24:51Z</time>
      </trkpt>
      <trkpt lat="46.96511" lon="3.80564">
        <ele>224.61</ele>
        <time>2015-10-28T14:24:57Z</time>
      </trkpt>
      <trkpt lat="46.9651" lon="3.80579">
        <ele>226.05</ele>
        <time>2015-10-28T14:25:06Z</time>
      </trkpt>
      <trkpt lat="46.96512" lon="3.80612">
        <ele>224.12</ele>
        <time>2015-10-28T14:25:23Z</time>
      </trkpt>
      <trkpt lat="46.96514" lon="3.80637">
        <ele>223.64</ele>
        <time>2015-10-28T14:25:37Z</time>
      </trkpt>
      <trkpt lat="46.96514" lon="3.80662">
        <ele>223.64</ele>
        <time>2015-10-28T14:25:51Z</time>
      </trkpt>
      <trkpt lat="46.96516" lon="3.80691">
        <ele>222.2</ele>
        <time>2015-10-28T14:26:06Z</time>
      </trkpt>
      <trkpt lat="46.96525" lon="3.80705">
        <ele>222.2</ele>
        <time>2015-10-28T14:26:16Z</time>
      </trkpt>
      <trkpt lat="46.96536" lon="3.80709">
        <ele>222.2</ele>
        <time>2015-10-28T14:26:23Z</time>
      </trkpt>
      <trkpt lat="46.96549" lon="3.8071">
        <ele>220.76</ele>
        <time>2015-10-28T14:26:35Z</time>
      </trkpt>
      <trkpt lat="46.96551" lon="3.8071">
        <ele>220.76</ele>
        <time>2015-10-28T14:26:37Z</time>
      </trkpt>
      <trkpt lat="46.96558" lon="3.80705">
        <ele>220.28</ele>
        <time>2015-10-28T14:26:43Z</time>
      </trkpt>
      <trkpt lat="46.96573" lon="3.80701">
        <ele>219.8</ele>
        <time>2015-10-28T14:26:55Z</time>
      </trkpt>
      <trkpt lat="46.96588" lon="3.80697">
        <ele>219.32</ele>
        <time>2015-10-28T14:27:08Z</time>
      </trkpt>
      <trkpt lat="46.96608" lon="3.80689">
        <ele>217.88</ele>
        <time>2015-10-28T14:27:23Z</time>
      </trkpt>
      <trkpt lat="46.96626" lon="3.80681">
        <ele>218.36</ele>
        <time>2015-10-28T14:27:38Z</time>
      </trkpt>
      <trkpt lat="46.96645" lon="3.80669">
        <ele>220.76</ele>
        <time>2015-10-28T14:27:52Z</time>
      </trkpt>
      <trkpt lat="46.96666" lon="3.80655">
        <ele>219.8</ele>
        <time>2015-10-28T14:28:10Z</time>
      </trkpt>
      <trkpt lat="46.9668" lon="3.80643">
        <ele>220.28</ele>
        <time>2015-10-28T14:28:23Z</time>
      </trkpt>
      <trkpt lat="46.96691" lon="3.80637">
        <ele>220.28</ele>
        <time>2015-10-28T14:28:34Z</time>
      </trkpt>
      <trkpt lat="46.96712" lon="3.80623">
        <ele>221.72</ele>
        <time>2015-10-28T14:28:51Z</time>
      </trkpt>
      <trkpt lat="46.96731" lon="3.8061">
        <ele>223.64</ele>
        <time>2015-10-28T14:29:07Z</time>
      </trkpt>
      <trkpt lat="46.96751" lon="3.806">
        <ele>222.2</ele>
        <time>2015-10-28T14:29:22Z</time>
      </trkpt>
      <trkpt lat="46.96773" lon="3.80591">
        <ele>221.24</ele>
        <time>2015-10-28T14:29:40Z</time>
      </trkpt>
      <trkpt lat="46.96792" lon="3.80582">
        <ele>220.28</ele>
        <time>2015-10-28T14:29:56Z</time>
      </trkpt>
      <trkpt lat="46.96809" lon="3.80576">
        <ele>220.28</ele>
        <time>2015-10-28T14:30:10Z</time>
      </trkpt>
      <trkpt lat="46.9683" lon="3.80568">
        <ele>220.28</ele>
        <time>2015-10-28T14:30:27Z</time>
      </trkpt>
      <trkpt lat="46.96851" lon="3.80572">
        <ele>222.2</ele>
        <time>2015-10-28T14:30:44Z</time>
      </trkpt>
      <trkpt lat="46.96873" lon="3.80573">
        <ele>222.68</ele>
        <time>2015-10-28T14:30:59Z</time>
      </trkpt>
      <trkpt lat="46.96893" lon="3.80578">
        <ele>220.76</ele>
        <time>2015-10-28T14:31:14Z</time>
      </trkpt>
      <trkpt lat="46.96909" lon="3.80583">
        <ele>219.8</ele>
        <time>2015-10-28T14:31:28Z</time>
      </trkpt>
      <trkpt lat="46.96928" lon="3.80587">
        <ele>218.36</ele>
        <time>2015-10-28T14:31:43Z</time>
      </trkpt>
      <trkpt lat="46.96941" lon="3.80591">
        <ele>218.36</ele>
        <time>2015-10-28T14:31:54Z</time>
      </trkpt>
      <trkpt lat="46.9695" lon="3.80593">
        <ele>217.88</ele>
        <time>2015-10-28T14:32:01Z</time>
      </trkpt>
      <trkpt lat="46.9696" lon="3.80596">
        <ele>218.84</ele>
        <time>2015-10-28T14:32:09Z</time>
      </trkpt>
      <trkpt lat="46.96978" lon="3.80592">
        <ele>219.8</ele>
        <time>2015-10-28T14:32:24Z</time>
      </trkpt>
      <trkpt lat="46.96984" lon="3.8059">
        <ele>219.8</ele>
        <time>2015-10-28T14:32:30Z</time>
      </trkpt>
      <trkpt lat="46.96998" lon="3.80601">
        <ele>219.8</ele>
        <time>2015-10-28T14:32:40Z</time>
      </trkpt>
      <trkpt lat="46.97001" lon="3.80606">
        <ele>218.36</ele>
        <time>2015-10-28T14:32:44Z</time>
      </trkpt>
      <trkpt lat="46.97003" lon="3.80616">
        <ele>217.88</ele>
        <time>2015-10-28T14:32:49Z</time>
      </trkpt>
      <trkpt lat="46.97005" lon="3.80653">
        <ele>215.95</ele>
        <time>2015-10-28T14:33:09Z</time>
      </trkpt>
      <trkpt lat="46.97006" lon="3.80685">
        <ele>213.55</ele>
        <time>2015-10-28T14:33:26Z</time>
      </trkpt>
      <trkpt lat="46.97014" lon="3.80712">
        <ele>212.11</ele>
        <time>2015-10-28T14:33:42Z</time>
      </trkpt>
      <trkpt lat="46.97016" lon="3.80715">
        <ele>211.15</ele>
        <time>2015-10-28T14:33:45Z</time>
      </trkpt>
      <trkpt lat="46.97018" lon="3.80717">
        <ele>210.19</ele>
        <time>2015-10-28T14:33:48Z</time>
      </trkpt>
      <trkpt lat="46.97022" lon="3.8072">
        <ele>209.22</ele>
        <time>2015-10-28T14:34:02Z</time>
      </trkpt>
      <trkpt lat="46.97025" lon="3.80717">
        <ele>208.74</ele>
        <time>2015-10-28T14:34:06Z</time>
      </trkpt>
      <trkpt lat="46.97039" lon="3.80704">
        <ele>206.34</ele>
        <time>2015-10-28T14:34:20Z</time>
      </trkpt>
      <trkpt lat="46.97053" lon="3.80687">
        <ele>204.42</ele>
        <time>2015-10-28T14:34:36Z</time>
      </trkpt>
      <trkpt lat="46.97068" lon="3.80675">
        <ele>202.49</ele>
        <time>2015-10-28T14:34:51Z</time>
      </trkpt>
      <trkpt lat="46.97082" lon="3.80662">
        <ele>199.13</ele>
        <time>2015-10-28T14:35:04Z</time>
      </trkpt>
      <trkpt lat="46.97083" lon="3.80662">
        <ele>197.69</ele>
        <time>2015-10-28T14:35:07Z</time>
      </trkpt>
      <trkpt lat="46.97101" lon="3.80652">
        <ele>194.8</ele>
        <time>2015-10-28T14:35:22Z</time>
      </trkpt>
      <trkpt lat="46.97106" lon="3.80653">
        <ele>192.88</ele>
        <time>2015-10-28T14:35:29Z</time>
      </trkpt>
      <trkpt lat="46.97128" lon="3.80643">
        <ele>189.52</ele>
        <time>2015-10-28T14:35:47Z</time>
      </trkpt>
      <trkpt lat="46.97132" lon="3.80641">
        <ele>188.56</ele>
        <time>2015-10-28T14:35:51Z</time>
      </trkpt>
      <trkpt lat="46.97137" lon="3.80639">
        <ele>187.59</ele>
        <time>2015-10-28T14:35:55Z</time>
      </trkpt>
      <trkpt lat="46.97145" lon="3.80637">
        <ele>186.15</ele>
        <time>2015-10-28T14:36:02Z</time>
      </trkpt>
      <trkpt lat="46.97164" lon="3.8063">
        <ele>185.19</ele>
        <time>2015-10-28T14:36:20Z</time>
      </trkpt>
      <trkpt lat="46.97187" lon="3.80623">
        <ele>181.83</ele>
        <time>2015-10-28T14:36:38Z</time>
      </trkpt>
      <trkpt lat="46.97205" lon="3.80635">
        <ele>185.67</ele>
        <time>2015-10-28T14:36:53Z</time>
      </trkpt>
      <trkpt lat="46.97227" lon="3.80648">
        <ele>187.59</ele>
        <time>2015-10-28T14:37:10Z</time>
      </trkpt>
      <trkpt lat="46.9725" lon="3.80651">
        <ele>190</ele>
        <time>2015-10-28T14:37:27Z</time>
      </trkpt>
      <trkpt lat="46.97267" lon="3.80653">
        <ele>193.36</ele>
        <time>2015-10-28T14:37:43Z</time>
      </trkpt>
      <trkpt lat="46.97289" lon="3.80654">
        <ele>195.77</ele>
        <time>2015-10-28T14:38:00Z</time>
      </trkpt>
      <trkpt lat="46.97294" lon="3.8066">
        <ele>196.73</ele>
        <time>2015-10-28T14:38:07Z</time>
      </trkpt>
      <trkpt lat="46.97293" lon="3.80665">
        <ele>197.21</ele>
        <time>2015-10-28T14:38:11Z</time>
      </trkpt>
      <trkpt lat="46.97278" lon="3.8068">
        <ele>199.61</ele>
        <time>2015-10-28T14:38:29Z</time>
      </trkpt>
      <trkpt lat="46.97275" lon="3.80691">
        <ele>200.09</ele>
        <time>2015-10-28T14:38:42Z</time>
      </trkpt>
      <trkpt lat="46.97271" lon="3.807">
        <ele>199.61</ele>
        <time>2015-10-28T14:38:55Z</time>
      </trkpt>
      <trkpt lat="46.97264" lon="3.80721">
        <ele>198.17</ele>
        <time>2015-10-28T14:39:08Z</time>
      </trkpt>
      <trkpt lat="46.97257" lon="3.80743">
        <ele>198.17</ele>
        <time>2015-10-28T14:39:22Z</time>
      </trkpt>
      <trkpt lat="46.97254" lon="3.80755">
        <ele>200.09</ele>
        <time>2015-10-28T14:39:30Z</time>
      </trkpt>
      <trkpt lat="46.97245" lon="3.8077">
        <ele>201.05</ele>
        <time>2015-10-28T14:39:44Z</time>
      </trkpt>
      <trkpt lat="46.97238" lon="3.80785">
        <ele>202.01</ele>
        <time>2015-10-28T14:39:56Z</time>
      </trkpt>
      <trkpt lat="46.9723" lon="3.80797">
        <ele>203.46</ele>
        <time>2015-10-28T14:40:07Z</time>
      </trkpt>
      <trkpt lat="46.97222" lon="3.80811">
        <ele>202.98</ele>
        <time>2015-10-28T14:40:16Z</time>
      </trkpt>
      <trkpt lat="46.97213" lon="3.80835">
        <ele>202.49</ele>
        <time>2015-10-28T14:40:30Z</time>
      </trkpt>
      <trkpt lat="46.97202" lon="3.80857">
        <ele>202.01</ele>
        <time>2015-10-28T14:40:44Z</time>
      </trkpt>
      <trkpt lat="46.972" lon="3.80862">
        <ele>202.49</ele>
        <time>2015-10-28T14:40:49Z</time>
      </trkpt>
      <trkpt lat="46.9719" lon="3.8089">
        <ele>203.94</ele>
        <time>2015-10-28T14:41:05Z</time>
      </trkpt>
      <trkpt lat="46.97185" lon="3.80898">
        <ele>203.94</ele>
        <time>2015-10-28T14:41:12Z</time>
      </trkpt>
      <trkpt lat="46.97177" lon="3.8092">
        <ele>204.9</ele>
        <time>2015-10-28T14:41:28Z</time>
      </trkpt>
      <trkpt lat="46.97174" lon="3.80931">
        <ele>205.86</ele>
        <time>2015-10-28T14:41:35Z</time>
      </trkpt>
      <trkpt lat="46.97163" lon="3.80961">
        <ele>204.9</ele>
        <time>2015-10-28T14:41:53Z</time>
      </trkpt>
      <trkpt lat="46.97161" lon="3.80992">
        <ele>201.05</ele>
        <time>2015-10-28T14:42:08Z</time>
      </trkpt>
      <trkpt lat="46.97157" lon="3.81022">
        <ele>196.73</ele>
        <time>2015-10-28T14:42:24Z</time>
      </trkpt>
      <trkpt lat="46.97152" lon="3.8104">
        <ele>197.21</ele>
        <time>2015-10-28T14:42:39Z</time>
      </trkpt>
      <trkpt lat="46.97146" lon="3.81066">
        <ele>197.21</ele>
        <time>2015-10-28T14:42:56Z</time>
      </trkpt>
      <trkpt lat="46.9714" lon="3.81088">
        <ele>196.73</ele>
        <time>2015-10-28T14:43:10Z</time>
      </trkpt>
      <trkpt lat="46.97136" lon="3.811">
        <ele>196.73</ele>
        <time>2015-10-28T14:43:18Z</time>
      </trkpt>
      <trkpt lat="46.97127" lon="3.81125">
        <ele>201.53</ele>
        <time>2015-10-28T14:43:35Z</time>
      </trkpt>
      <trkpt lat="46.97121" lon="3.81151">
        <ele>204.9</ele>
        <time>2015-10-28T14:43:54Z</time>
      </trkpt>
      <trkpt lat="46.97118" lon="3.81178">
        <ele>208.26</ele>
        <time>2015-10-28T14:44:11Z</time>
      </trkpt>
      <trkpt lat="46.97114" lon="3.81199">
        <ele>208.26</ele>
        <time>2015-10-28T14:44:26Z</time>
      </trkpt>
      <trkpt lat="46.97107" lon="3.81228">
        <ele>211.15</ele>
        <time>2015-10-28T14:44:45Z</time>
      </trkpt>
      <trkpt lat="46.97103" lon="3.81246">
        <ele>212.59</ele>
        <time>2015-10-28T14:44:57Z</time>
      </trkpt>
      <trkpt lat="46.97093" lon="3.81279">
        <ele>217.88</ele>
        <time>2015-10-28T14:45:19Z</time>
      </trkpt>
      <trkpt lat="46.97081" lon="3.81309">
        <ele>219.8</ele>
        <time>2015-10-28T14:45:38Z</time>
      </trkpt>
      <trkpt lat="46.97068" lon="3.81319">
        <ele>220.76</ele>
        <time>2015-10-28T14:45:52Z</time>
      </trkpt>
      <trkpt lat="46.97054" lon="3.81318">
        <ele>223.64</ele>
        <time>2015-10-28T14:46:06Z</time>
      </trkpt>
      <trkpt lat="46.97033" lon="3.81314">
        <ele>227.01</ele>
        <time>2015-10-28T14:46:28Z</time>
      </trkpt>
      <trkpt lat="46.97014" lon="3.8131">
        <ele>226.53</ele>
        <time>2015-10-28T14:46:45Z</time>
      </trkpt>
      <trkpt lat="46.97" lon="3.813">
        <ele>229.41</ele>
        <time>2015-10-28T14:47:01Z</time>
      </trkpt>
      <trkpt lat="46.96986" lon="3.81292">
        <ele>230.85</ele>
        <time>2015-10-28T14:47:16Z</time>
      </trkpt>
      <trkpt lat="46.96966" lon="3.81283">
        <ele>230.37</ele>
        <time>2015-10-28T14:47:33Z</time>
      </trkpt>
      <trkpt lat="46.96952" lon="3.81278">
        <ele>232.3</ele>
        <time>2015-10-28T14:47:47Z</time>
      </trkpt>
      <trkpt lat="46.96947" lon="3.81275">
        <ele>232.78</ele>
        <time>2015-10-28T14:47:53Z</time>
      </trkpt>
      <trkpt lat="46.96946" lon="3.81273">
        <ele>233.26</ele>
        <time>2015-10-28T14:48:03Z</time>
      </trkpt>
      <trkpt lat="46.96934" lon="3.81278">
        <ele>234.22</ele>
        <time>2015-10-28T14:48:13Z</time>
      </trkpt>
      <trkpt lat="46.96918" lon="3.81295">
        <ele>235.66</ele>
        <time>2015-10-28T14:48:29Z</time>
      </trkpt>
      <trkpt lat="46.96911" lon="3.81305">
        <ele>234.22</ele>
        <time>2015-10-28T14:48:47Z</time>
      </trkpt>
      <trkpt lat="46.96909" lon="3.81314">
        <ele>234.22</ele>
        <time>2015-10-28T14:48:58Z</time>
      </trkpt>
      <trkpt lat="46.96909" lon="3.81316">
        <ele>234.22</ele>
        <time>2015-10-28T14:49:10Z</time>
      </trkpt>
      <trkpt lat="46.96909" lon="3.81316">
        <ele>234.22</ele>
        <time>2015-10-28T14:49:39Z</time>
      </trkpt>
      <trkpt lat="46.96907" lon="3.81326">
        <ele>233.26</ele>
        <time>2015-10-28T14:49:50Z</time>
      </trkpt>
      <trkpt lat="46.96907" lon="3.81333">
        <ele>233.26</ele>
        <time>2015-10-28T14:50:05Z</time>
      </trkpt>
      <trkpt lat="46.96906" lon="3.81343">
        <ele>233.74</ele>
        <time>2015-10-28T14:50:18Z</time>
      </trkpt>
      <trkpt lat="46.96904" lon="3.81346">
        <ele>233.74</ele>
        <time>2015-10-28T14:50:21Z</time>
      </trkpt>
      <trkpt lat="46.96904" lon="3.81356">
        <ele>233.26</ele>
        <time>2015-10-28T14:50:33Z</time>
      </trkpt>
      <trkpt lat="46.96903" lon="3.81358">
        <ele>233.26</ele>
        <time>2015-10-28T14:50:38Z</time>
      </trkpt>
      <trkpt lat="46.96902" lon="3.81362">
        <ele>233.74</ele>
        <time>2015-10-28T14:50:42Z</time>
      </trkpt>
      <trkpt lat="46.96897" lon="3.81377">
        <ele>233.26</ele>
        <time>2015-10-28T14:50:54Z</time>
      </trkpt>
      <trkpt lat="46.96891" lon="3.81389">
        <ele>234.7</ele>
        <time>2015-10-28T14:51:08Z</time>
      </trkpt>
      <trkpt lat="46.96886" lon="3.81403">
        <ele>235.66</ele>
        <time>2015-10-28T14:51:19Z</time>
      </trkpt>
      <trkpt lat="46.96878" lon="3.81424">
        <ele>236.62</ele>
        <time>2015-10-28T14:51:34Z</time>
      </trkpt>
      <trkpt lat="46.96871" lon="3.81445">
        <ele>235.66</ele>
        <time>2015-10-28T14:51:48Z</time>
      </trkpt>
      <trkpt lat="46.96862" lon="3.81468">
        <ele>236.14</ele>
        <time>2015-10-28T14:52:02Z</time>
      </trkpt>
      <trkpt lat="46.96852" lon="3.81488">
        <ele>237.58</ele>
        <time>2015-10-28T14:52:16Z</time>
      </trkpt>
      <trkpt lat="46.96842" lon="3.81508">
        <ele>238.06</ele>
        <time>2015-10-28T14:52:30Z</time>
      </trkpt>
      <trkpt lat="46.96831" lon="3.81525">
        <ele>238.54</ele>
        <time>2015-10-28T14:52:43Z</time>
      </trkpt>
      <trkpt lat="46.96818" lon="3.81539">
        <ele>239.02</ele>
        <time>2015-10-28T14:52:58Z</time>
      </trkpt>
      <trkpt lat="46.96801" lon="3.81551">
        <ele>239.99</ele>
        <time>2015-10-28T14:53:13Z</time>
      </trkpt>
      <trkpt lat="46.96782" lon="3.81565">
        <ele>239.51</ele>
        <time>2015-10-28T14:53:30Z</time>
      </trkpt>
      <trkpt lat="46.96766" lon="3.81576">
        <ele>239.99</ele>
        <time>2015-10-28T14:53:45Z</time>
      </trkpt>
      <trkpt lat="46.96747" lon="3.81584">
        <ele>239.51</ele>
        <time>2015-10-28T14:54:00Z</time>
      </trkpt>
      <trkpt lat="46.96733" lon="3.81588">
        <ele>239.51</ele>
        <time>2015-10-28T14:54:13Z</time>
      </trkpt>
      <trkpt lat="46.96726" lon="3.81595">
        <ele>240.47</ele>
        <time>2015-10-28T14:54:25Z</time>
      </trkpt>
      <trkpt lat="46.96726" lon="3.81595">
        <ele>240.47</ele>
        <time>2015-10-28T14:54:34Z</time>
      </trkpt>
      <trkpt lat="46.96726" lon="3.81606">
        <ele>240.47</ele>
        <time>2015-10-28T14:54:38Z</time>
      </trkpt>
      <trkpt lat="46.9673" lon="3.81621">
        <ele>240.47</ele>
        <time>2015-10-28T14:54:46Z</time>
      </trkpt>
      <trkpt lat="46.96741" lon="3.81656">
        <ele>241.91</ele>
        <time>2015-10-28T14:55:06Z</time>
      </trkpt>
      <trkpt lat="46.96756" lon="3.81686">
        <ele>241.43</ele>
        <time>2015-10-28T14:55:25Z</time>
      </trkpt>
      <trkpt lat="46.96769" lon="3.8171">
        <ele>243.83</ele>
        <time>2015-10-28T14:55:42Z</time>
      </trkpt>
      <trkpt lat="46.96785" lon="3.81736">
        <ele>245.75</ele>
        <time>2015-10-28T14:56:02Z</time>
      </trkpt>
      <trkpt lat="46.968" lon="3.81762">
        <ele>250.08</ele>
        <time>2015-10-28T14:56:21Z</time>
      </trkpt>
      <trkpt lat="46.96817" lon="3.81795">
        <ele>251.52</ele>
        <time>2015-10-28T14:56:42Z</time>
      </trkpt>
      <trkpt lat="46.96838" lon="3.81825">
        <ele>251.52</ele>
        <time>2015-10-28T14:57:00Z</time>
      </trkpt>
      <trkpt lat="46.96846" lon="3.81818">
        <ele>250.08</ele>
        <time>2015-10-28T14:57:07Z</time>
      </trkpt>
      <trkpt lat="46.96855" lon="3.81813">
        <ele>250.08</ele>
        <time>2015-10-28T14:57:17Z</time>
      </trkpt>
      <trkpt lat="46.96872" lon="3.81814">
        <ele>250.08</ele>
        <time>2015-10-28T14:57:34Z</time>
      </trkpt>
      <trkpt lat="46.9689" lon="3.81826">
        <ele>248.16</ele>
        <time>2015-10-28T14:57:51Z</time>
      </trkpt>
      <trkpt lat="46.96905" lon="3.81837">
        <ele>249.6</ele>
        <time>2015-10-28T14:58:08Z</time>
      </trkpt>
      <trkpt lat="46.96926" lon="3.81851">
        <ele>248.64</ele>
        <time>2015-10-28T14:58:28Z</time>
      </trkpt>
      <trkpt lat="46.96937" lon="3.81855">
        <ele>247.2</ele>
        <time>2015-10-28T14:58:44Z</time>
      </trkpt>
      <trkpt lat="46.96948" lon="3.81865">
        <ele>246.72</ele>
        <time>2015-10-28T14:58:59Z</time>
      </trkpt>
      <trkpt lat="46.96966" lon="3.81875">
        <ele>245.75</ele>
        <time>2015-10-28T14:59:14Z</time>
      </trkpt>
      <trkpt lat="46.96984" lon="3.8189">
        <ele>244.31</ele>
        <time>2015-10-28T14:59:30Z</time>
      </trkpt>
      <trkpt lat="46.97003" lon="3.8189">
        <ele>244.31</ele>
        <time>2015-10-28T14:59:44Z</time>
      </trkpt>
      <trkpt lat="46.97005" lon="3.81892">
        <ele>244.31</ele>
        <time>2015-10-28T14:59:47Z</time>
      </trkpt>
      <trkpt lat="46.97022" lon="3.81884">
        <ele>244.31</ele>
        <time>2015-10-28T15:00:02Z</time>
      </trkpt>
      <trkpt lat="46.97037" lon="3.8187">
        <ele>243.83</ele>
        <time>2015-10-28T15:00:15Z</time>
      </trkpt>
      <trkpt lat="46.97053" lon="3.81856">
        <ele>242.39</ele>
        <time>2015-10-28T15:00:31Z</time>
      </trkpt>
      <trkpt lat="46.97069" lon="3.81845">
        <ele>241.91</ele>
        <time>2015-10-28T15:00:44Z</time>
      </trkpt>
      <trkpt lat="46.97074" lon="3.81845">
        <ele>242.87</ele>
        <time>2015-10-28T15:00:50Z</time>
      </trkpt>
      <trkpt lat="46.9709" lon="3.81837">
        <ele>244.31</ele>
        <time>2015-10-28T15:01:06Z</time>
      </trkpt>
      <trkpt lat="46.97107" lon="3.81816">
        <ele>243.83</ele>
        <time>2015-10-28T15:01:25Z</time>
      </trkpt>
      <trkpt lat="46.97126" lon="3.81799">
        <ele>243.35</ele>
        <time>2015-10-28T15:01:43Z</time>
      </trkpt>
      <trkpt lat="46.9715" lon="3.81778">
        <ele>239.02</ele>
        <time>2015-10-28T15:02:05Z</time>
      </trkpt>
      <trkpt lat="46.97152" lon="3.81776">
        <ele>239.02</ele>
        <time>2015-10-28T15:02:08Z</time>
      </trkpt>
      <trkpt lat="46.97175" lon="3.81756">
        <ele>237.58</ele>
        <time>2015-10-28T15:02:28Z</time>
      </trkpt>
      <trkpt lat="46.97192" lon="3.8174">
        <ele>236.14</ele>
        <time>2015-10-28T15:02:44Z</time>
      </trkpt>
      <trkpt lat="46.972" lon="3.81734">
        <ele>234.7</ele>
        <time>2015-10-28T15:02:56Z</time>
      </trkpt>
      <trkpt lat="46.97202" lon="3.81731">
        <ele>234.7</ele>
        <time>2015-10-28T15:03:01Z</time>
      </trkpt>
      <trkpt lat="46.97212" lon="3.8171">
        <ele>235.18</ele>
        <time>2015-10-28T15:03:17Z</time>
      </trkpt>
      <trkpt lat="46.97222" lon="3.81686">
        <ele>232.78</ele>
        <time>2015-10-28T15:03:33Z</time>
      </trkpt>
      <trkpt lat="46.97232" lon="3.81662">
        <ele>231.81</ele>
        <time>2015-10-28T15:03:48Z</time>
      </trkpt>
      <trkpt lat="46.97242" lon="3.81634">
        <ele>232.78</ele>
        <time>2015-10-28T15:04:06Z</time>
      </trkpt>
      <trkpt lat="46.97252" lon="3.81606">
        <ele>233.74</ele>
        <time>2015-10-28T15:04:23Z</time>
      </trkpt>
      <trkpt lat="46.97265" lon="3.81578">
        <ele>235.18</ele>
        <time>2015-10-28T15:04:42Z</time>
      </trkpt>
      <trkpt lat="46.97277" lon="3.8155">
        <ele>233.26</ele>
        <time>2015-10-28T15:04:57Z</time>
      </trkpt>
      <trkpt lat="46.9729" lon="3.81515">
        <ele>230.85</ele>
        <time>2015-10-28T15:05:15Z</time>
      </trkpt>
      <trkpt lat="46.97303" lon="3.81486">
        <ele>231.33</ele>
        <time>2015-10-28T15:05:33Z</time>
      </trkpt>
      <trkpt lat="46.97315" lon="3.81461">
        <ele>231.81</ele>
        <time>2015-10-28T15:05:50Z</time>
      </trkpt>
      <trkpt lat="46.97327" lon="3.81426">
        <ele>227.97</ele>
        <time>2015-10-28T15:06:08Z</time>
      </trkpt>
      <trkpt lat="46.97336" lon="3.81416">
        <ele>225.57</ele>
        <time>2015-10-28T15:06:21Z</time>
      </trkpt>
      <trkpt lat="46.97353" lon="3.8143">
        <ele>227.97</ele>
        <time>2015-10-28T15:06:37Z</time>
      </trkpt>
      <trkpt lat="46.97371" lon="3.81447">
        <ele>227.97</ele>
        <time>2015-10-28T15:06:53Z</time>
      </trkpt>
      <trkpt lat="46.97378" lon="3.81475">
        <ele>226.53</ele>
        <time>2015-10-28T15:07:10Z</time>
      </trkpt>
      <trkpt lat="46.9738" lon="3.81508">
        <ele>222.68</ele>
        <time>2015-10-28T15:07:28Z</time>
      </trkpt>
      <trkpt lat="46.97388" lon="3.81537">
        <ele>219.8</ele>
        <time>2015-10-28T15:07:43Z</time>
      </trkpt>
      <trkpt lat="46.97396" lon="3.81547">
        <ele>218.36</ele>
        <time>2015-10-28T15:07:53Z</time>
      </trkpt>
      <trkpt lat="46.97424" lon="3.81564">
        <ele>217.88</ele>
        <time>2015-10-28T15:08:12Z</time>
      </trkpt>
      <trkpt lat="46.97444" lon="3.81557">
        <ele>219.32</ele>
        <time>2015-10-28T15:08:29Z</time>
      </trkpt>
      <trkpt lat="46.97464" lon="3.81543">
        <ele>221.72</ele>
        <time>2015-10-28T15:08:46Z</time>
      </trkpt>
      <trkpt lat="46.97485" lon="3.81534">
        <ele>222.68</ele>
        <time>2015-10-28T15:09:03Z</time>
      </trkpt>
      <trkpt lat="46.97509" lon="3.81536">
        <ele>223.64</ele>
        <time>2015-10-28T15:09:22Z</time>
      </trkpt>
      <trkpt lat="46.97527" lon="3.81542">
        <ele>224.61</ele>
        <time>2015-10-28T15:09:37Z</time>
      </trkpt>
      <trkpt lat="46.97539" lon="3.81542">
        <ele>224.61</ele>
        <time>2015-10-28T15:09:46Z</time>
      </trkpt>
      <trkpt lat="46.97544" lon="3.8152">
        <ele>221.24</ele>
        <time>2015-10-28T15:10:02Z</time>
      </trkpt>
      <trkpt lat="46.97544" lon="3.81516">
        <ele>220.28</ele>
        <time>2015-10-28T15:10:13Z</time>
      </trkpt>
      <trkpt lat="46.97545" lon="3.81514">
        <ele>220.28</ele>
        <time>2015-10-28T15:10:30Z</time>
      </trkpt>
      <trkpt lat="46.97545" lon="3.81513">
        <ele>219.8</ele>
        <time>2015-10-28T15:10:51Z</time>
      </trkpt>
      <trkpt lat="46.97545" lon="3.81509">
        <ele>219.8</ele>
        <time>2015-10-28T15:11:14Z</time>
      </trkpt>
      <trkpt lat="46.97545" lon="3.81506">
        <ele>219.8</ele>
        <time>2015-10-28T15:11:26Z</time>
      </trkpt>
      <trkpt lat="46.97554" lon="3.81486">
        <ele>219.8</ele>
        <time>2015-10-28T15:11:41Z</time>
      </trkpt>
      <trkpt lat="46.97567" lon="3.81471">
        <ele>218.36</ele>
        <time>2015-10-28T15:11:57Z</time>
      </trkpt>
      <trkpt lat="46.97581" lon="3.81459">
        <ele>216.43</ele>
        <time>2015-10-28T15:12:12Z</time>
      </trkpt>
      <trkpt lat="46.97584" lon="3.81456">
        <ele>214.99</ele>
        <time>2015-10-28T15:12:15Z</time>
      </trkpt>
      <trkpt lat="46.97604" lon="3.81443">
        <ele>212.59</ele>
        <time>2015-10-28T15:12:33Z</time>
      </trkpt>
      <trkpt lat="46.97621" lon="3.81427">
        <ele>208.26</ele>
        <time>2015-10-28T15:12:51Z</time>
      </trkpt>
      <trkpt lat="46.97631" lon="3.81408">
        <ele>208.26</ele>
        <time>2015-10-28T15:13:05Z</time>
      </trkpt>
      <trkpt lat="46.9763" lon="3.81381">
        <ele>210.19</ele>
        <time>2015-10-28T15:13:20Z</time>
      </trkpt>
      <trkpt lat="46.97629" lon="3.81378">
        <ele>210.19</ele>
        <time>2015-10-28T15:13:22Z</time>
      </trkpt>
      <trkpt lat="46.97623" lon="3.81356">
        <ele>214.99</ele>
        <time>2015-10-28T15:13:38Z</time>
      </trkpt>
      <trkpt lat="46.97623" lon="3.81332">
        <ele>219.8</ele>
        <time>2015-10-28T15:13:56Z</time>
      </trkpt>
      <trkpt lat="46.9762" lon="3.81313">
        <ele>221.72</ele>
        <time>2015-10-28T15:14:07Z</time>
      </trkpt>
      <trkpt lat="46.97615" lon="3.813">
        <ele>222.68</ele>
        <time>2015-10-28T15:14:15Z</time>
      </trkpt>
      <trkpt lat="46.97598" lon="3.81277">
        <ele>226.05</ele>
        <time>2015-10-28T15:14:33Z</time>
      </trkpt>
      <trkpt lat="46.97588" lon="3.81255">
        <ele>227.97</ele>
        <time>2015-10-28T15:14:47Z</time>
      </trkpt>
      <trkpt lat="46.97587" lon="3.81232">
        <ele>229.41</ele>
        <time>2015-10-28T15:15:03Z</time>
      </trkpt>
      <trkpt lat="46.97591" lon="3.81214">
        <ele>231.33</ele>
        <time>2015-10-28T15:15:17Z</time>
      </trkpt>
      <trkpt lat="46.976" lon="3.81193">
        <ele>228.93</ele>
        <time>2015-10-28T15:15:30Z</time>
      </trkpt>
      <trkpt lat="46.97607" lon="3.81176">
        <ele>226.53</ele>
        <time>2015-10-28T15:15:42Z</time>
      </trkpt>
      <trkpt lat="46.97609" lon="3.81169">
        <ele>226.53</ele>
        <time>2015-10-28T15:15:47Z</time>
      </trkpt>
      <trkpt lat="46.97604" lon="3.81146">
        <ele>227.01</ele>
        <time>2015-10-28T15:16:02Z</time>
      </trkpt>
      <trkpt lat="46.97602" lon="3.81142">
        <ele>227.01</ele>
        <time>2015-10-28T15:16:05Z</time>
      </trkpt>
      <trkpt lat="46.97598" lon="3.81129">
        <ele>227.97</ele>
        <time>2015-10-28T15:16:14Z</time>
      </trkpt>
      <trkpt lat="46.97595" lon="3.81124">
        <ele>228.93</ele>
        <time>2015-10-28T15:16:19Z</time>
      </trkpt>
      <trkpt lat="46.97591" lon="3.81102">
        <ele>229.41</ele>
        <time>2015-10-28T15:16:33Z</time>
      </trkpt>
      <trkpt lat="46.97584" lon="3.81078">
        <ele>229.89</ele>
        <time>2015-10-28T15:16:48Z</time>
      </trkpt>
      <trkpt lat="46.97577" lon="3.81059">
        <ele>230.85</ele>
        <time>2015-10-28T15:17:02Z</time>
      </trkpt>
      <trkpt lat="46.97569" lon="3.8104">
        <ele>232.78</ele>
        <time>2015-10-28T15:17:16Z</time>
      </trkpt>
      <trkpt lat="46.97561" lon="3.81021">
        <ele>233.74</ele>
        <time>2015-10-28T15:17:30Z</time>
      </trkpt>
      <trkpt lat="46.97561" lon="3.81019">
        <ele>233.74</ele>
        <time>2015-10-28T15:17:32Z</time>
      </trkpt>
      <trkpt lat="46.97559" lon="3.81008">
        <ele>234.7</ele>
        <time>2015-10-28T15:17:39Z</time>
      </trkpt>
      <trkpt lat="46.97557" lon="3.80985">
        <ele>237.1</ele>
        <time>2015-10-28T15:17:56Z</time>
      </trkpt>
      <trkpt lat="46.97556" lon="3.80981">
        <ele>237.58</ele>
        <time>2015-10-28T15:17:59Z</time>
      </trkpt>
      <trkpt lat="46.97553" lon="3.80955">
        <ele>239.02</ele>
        <time>2015-10-28T15:18:15Z</time>
      </trkpt>
      <trkpt lat="46.97548" lon="3.80931">
        <ele>237.58</ele>
        <time>2015-10-28T15:18:30Z</time>
      </trkpt>
      <trkpt lat="46.97544" lon="3.80907">
        <ele>235.66</ele>
        <time>2015-10-28T15:18:45Z</time>
      </trkpt>
      <trkpt lat="46.97543" lon="3.80877">
        <ele>233.26</ele>
        <time>2015-10-28T15:19:02Z</time>
      </trkpt>
      <trkpt lat="46.97552" lon="3.8086">
        <ele>230.85</ele>
        <time>2015-10-28T15:19:15Z</time>
      </trkpt>
      <trkpt lat="46.97564" lon="3.80842">
        <ele>228.93</ele>
        <time>2015-10-28T15:19:29Z</time>
      </trkpt>
      <trkpt lat="46.97562" lon="3.80811">
        <ele>227.49</ele>
        <time>2015-10-28T15:19:46Z</time>
      </trkpt>
      <trkpt lat="46.9755" lon="3.80784">
        <ele>225.57</ele>
        <time>2015-10-28T15:20:04Z</time>
      </trkpt>
      <trkpt lat="46.9754" lon="3.80762">
        <ele>224.61</ele>
        <time>2015-10-28T15:20:20Z</time>
      </trkpt>
      <trkpt lat="46.97537" lon="3.80754">
        <ele>224.12</ele>
        <time>2015-10-28T15:20:26Z</time>
      </trkpt>
      <trkpt lat="46.97533" lon="3.80743">
        <ele>222.68</ele>
        <time>2015-10-28T15:20:35Z</time>
      </trkpt>
      <trkpt lat="46.97534" lon="3.80738">
        <ele>222.68</ele>
        <time>2015-10-28T15:20:39Z</time>
      </trkpt>
      <trkpt lat="46.97547" lon="3.80728">
        <ele>222.68</ele>
        <time>2015-10-28T15:20:53Z</time>
      </trkpt>
      <trkpt lat="46.9756" lon="3.80721">
        <ele>225.09</ele>
        <time>2015-10-28T15:21:06Z</time>
      </trkpt>
      <trkpt lat="46.9757" lon="3.80716">
        <ele>227.01</ele>
        <time>2015-10-28T15:21:16Z</time>
      </trkpt>
      <trkpt lat="46.97587" lon="3.80707">
        <ele>230.85</ele>
        <time>2015-10-28T15:21:32Z</time>
      </trkpt>
      <trkpt lat="46.97605" lon="3.80697">
        <ele>231.33</ele>
        <time>2015-10-28T15:21:47Z</time>
      </trkpt>
      <trkpt lat="46.97623" lon="3.80685">
        <ele>229.41</ele>
        <time>2015-10-28T15:22:02Z</time>
      </trkpt>
      <trkpt lat="46.9763" lon="3.80678">
        <ele>228.93</ele>
        <time>2015-10-28T15:22:10Z</time>
      </trkpt>
      <trkpt lat="46.9764" lon="3.80669">
        <ele>226.53</ele>
        <time>2015-10-28T15:22:21Z</time>
      </trkpt>
      <trkpt lat="46.97642" lon="3.80667">
        <ele>226.53</ele>
        <time>2015-10-28T15:22:23Z</time>
      </trkpt>
      <trkpt lat="46.97661" lon="3.80657">
        <ele>224.12</ele>
        <time>2015-10-28T15:22:38Z</time>
      </trkpt>
      <trkpt lat="46.97679" lon="3.80648">
        <ele>222.68</ele>
        <time>2015-10-28T15:22:53Z</time>
      </trkpt>
      <trkpt lat="46.9768" lon="3.80647">
        <ele>222.68</ele>
        <time>2015-10-28T15:22:54Z</time>
      </trkpt>
      <trkpt lat="46.97693" lon="3.80621">
        <ele>216.91</ele>
        <time>2015-10-28T15:23:13Z</time>
      </trkpt>
      <trkpt lat="46.97697" lon="3.80601">
        <ele>212.11</ele>
        <time>2015-10-28T15:23:31Z</time>
      </trkpt>
      <trkpt lat="46.97695" lon="3.80586">
        <ele>212.59</ele>
        <time>2015-10-28T15:23:41Z</time>
      </trkpt>
      <trkpt lat="46.97702" lon="3.8057">
        <ele>210.67</ele>
        <time>2015-10-28T15:23:55Z</time>
      </trkpt>
      <trkpt lat="46.97704" lon="3.8057">
        <ele>210.19</ele>
        <time>2015-10-28T15:23:57Z</time>
      </trkpt>
      <trkpt lat="46.97719" lon="3.80568">
        <ele>207.3</ele>
        <time>2015-10-28T15:24:10Z</time>
      </trkpt>
      <trkpt lat="46.97721" lon="3.80566">
        <ele>207.3</ele>
        <time>2015-10-28T15:24:13Z</time>
      </trkpt>
      <trkpt lat="46.97728" lon="3.80564">
        <ele>207.3</ele>
        <time>2015-10-28T15:24:19Z</time>
      </trkpt>
      <trkpt lat="46.9775" lon="3.80555">
        <ele>207.3</ele>
        <time>2015-10-28T15:24:36Z</time>
      </trkpt>
      <trkpt lat="46.97753" lon="3.80554">
        <ele>207.3</ele>
        <time>2015-10-28T15:24:40Z</time>
      </trkpt>
      <trkpt lat="46.97754" lon="3.80553">
        <ele>206.82</ele>
        <time>2015-10-28T15:24:42Z</time>
      </trkpt>
      <trkpt lat="46.97773" lon="3.80546">
        <ele>203.46</ele>
        <time>2015-10-28T15:24:57Z</time>
      </trkpt>
      <trkpt lat="46.97789" lon="3.8054">
        <ele>201.53</ele>
        <time>2015-10-28T15:25:12Z</time>
      </trkpt>
      <trkpt lat="46.97796" lon="3.80542">
        <ele>201.05</ele>
        <time>2015-10-28T15:25:27Z</time>
      </trkpt>
      <trkpt lat="46.97804" lon="3.80545">
        <ele>202.01</ele>
        <time>2015-10-28T15:25:40Z</time>
      </trkpt>
      <trkpt lat="46.9781" lon="3.80548">
        <ele>202.01</ele>
        <time>2015-10-28T15:25:46Z</time>
      </trkpt>
      <trkpt lat="46.97825" lon="3.8056">
        <ele>201.53</ele>
        <time>2015-10-28T15:26:02Z</time>
      </trkpt>
      <trkpt lat="46.97829" lon="3.80563">
        <ele>202.01</ele>
        <time>2015-10-28T15:26:22Z</time>
      </trkpt>
      <trkpt lat="46.97841" lon="3.80579">
        <ele>202.01</ele>
        <time>2015-10-28T15:26:37Z</time>
      </trkpt>
      <trkpt lat="46.97855" lon="3.80594">
        <ele>200.09</ele>
        <time>2015-10-28T15:26:52Z</time>
      </trkpt>
      <trkpt lat="46.97862" lon="3.80603">
        <ele>198.17</ele>
        <time>2015-10-28T15:27:03Z</time>
      </trkpt>
      <trkpt lat="46.9787" lon="3.80599">
        <ele>198.17</ele>
        <time>2015-10-28T15:27:18Z</time>
      </trkpt>
      <trkpt lat="46.9787" lon="3.806">
        <ele>198.17</ele>
        <time>2015-10-28T15:27:25Z</time>
      </trkpt>
      <trkpt lat="46.9787" lon="3.80603">
        <ele>198.17</ele>
        <time>2015-10-28T15:27:27Z</time>
      </trkpt>
      <trkpt lat="46.97875" lon="3.8061">
        <ele>198.17</ele>
        <time>2015-10-28T15:27:32Z</time>
      </trkpt>
      <trkpt lat="46.97888" lon="3.80628">
        <ele>196.73</ele>
        <time>2015-10-28T15:27:48Z</time>
      </trkpt>
      <trkpt lat="46.97907" lon="3.8065">
        <ele>191.44</ele>
        <time>2015-10-28T15:28:09Z</time>
      </trkpt>
      <trkpt lat="46.97909" lon="3.80653">
        <ele>190.96</ele>
        <time>2015-10-28T15:28:11Z</time>
      </trkpt>
      <trkpt lat="46.97916" lon="3.80691">
        <ele>190</ele>
        <time>2015-10-28T15:28:29Z</time>
      </trkpt>
      <trkpt lat="46.97921" lon="3.80724">
        <ele>190</ele>
        <time>2015-10-28T15:28:48Z</time>
      </trkpt>
      <trkpt lat="46.97927" lon="3.80744">
        <ele>189.52</ele>
        <time>2015-10-28T15:29:00Z</time>
      </trkpt>
      <trkpt lat="46.97933" lon="3.80762">
        <ele>190</ele>
        <time>2015-10-28T15:29:20Z</time>
      </trkpt>
      <trkpt lat="46.97936" lon="3.80777">
        <ele>189.04</ele>
        <time>2015-10-28T15:29:36Z</time>
      </trkpt>
      <trkpt lat="46.97939" lon="3.80785">
        <ele>188.08</ele>
        <time>2015-10-28T15:29:55Z</time>
      </trkpt>
      <trkpt lat="46.97948" lon="3.8081">
        <ele>189.04</ele>
        <time>2015-10-28T15:30:11Z</time>
      </trkpt>
      <trkpt lat="46.97954" lon="3.8083">
        <ele>188.56</ele>
        <time>2015-10-28T15:30:23Z</time>
      </trkpt>
      <trkpt lat="46.97962" lon="3.80853">
        <ele>189.04</ele>
        <time>2015-10-28T15:30:39Z</time>
      </trkpt>
      <trkpt lat="46.97975" lon="3.80877">
        <ele>188.08</ele>
        <time>2015-10-28T15:30:57Z</time>
      </trkpt>
      <trkpt lat="46.97989" lon="3.80905">
        <ele>183.75</ele>
        <time>2015-10-28T15:31:15Z</time>
      </trkpt>
      <trkpt lat="46.98002" lon="3.8093">
        <ele>187.11</ele>
        <time>2015-10-28T15:31:31Z</time>
      </trkpt>
      <trkpt lat="46.9801" lon="3.80951">
        <ele>187.59</ele>
        <time>2015-10-28T15:31:45Z</time>
      </trkpt>
      <trkpt lat="46.98019" lon="3.80973">
        <ele>187.11</ele>
        <time>2015-10-28T15:32:01Z</time>
      </trkpt>
      <trkpt lat="46.98034" lon="3.81001">
        <ele>186.63</ele>
        <time>2015-10-28T15:32:20Z</time>
      </trkpt>
      <trkpt lat="46.98045" lon="3.81025">
        <ele>185.67</ele>
        <time>2015-10-28T15:32:35Z</time>
      </trkpt>
      <trkpt lat="46.98057" lon="3.81051">
        <ele>186.15</ele>
        <time>2015-10-28T15:32:52Z</time>
      </trkpt>
      <trkpt lat="46.98057" lon="3.81052">
        <ele>186.15</ele>
        <time>2015-10-28T15:32:53Z</time>
      </trkpt>
      <trkpt lat="46.98073" lon="3.81081">
        <ele>186.63</ele>
        <time>2015-10-28T15:33:11Z</time>
      </trkpt>
      <trkpt lat="46.98086" lon="3.81104">
        <ele>188.56</ele>
        <time>2015-10-28T15:33:27Z</time>
      </trkpt>
      <trkpt lat="46.98099" lon="3.81127">
        <ele>189.04</ele>
        <time>2015-10-28T15:33:43Z</time>
      </trkpt>
      <trkpt lat="46.98111" lon="3.81147">
        <ele>189.04</ele>
        <time>2015-10-28T15:33:57Z</time>
      </trkpt>
      <trkpt lat="46.98123" lon="3.81164">
        <ele>190</ele>
        <time>2015-10-28T15:34:11Z</time>
      </trkpt>
      <trkpt lat="46.98137" lon="3.81184">
        <ele>189.52</ele>
        <time>2015-10-28T15:34:26Z</time>
      </trkpt>
      <trkpt lat="46.98139" lon="3.81185">
        <ele>189.04</ele>
        <time>2015-10-28T15:34:28Z</time>
      </trkpt>
      <trkpt lat="46.98145" lon="3.81195">
        <ele>189.04</ele>
        <time>2015-10-28T15:34:34Z</time>
      </trkpt>
      <trkpt lat="46.98156" lon="3.81219">
        <ele>189.52</ele>
        <time>2015-10-28T15:34:50Z</time>
      </trkpt>
      <trkpt lat="46.98166" lon="3.81239">
        <ele>189.04</ele>
        <time>2015-10-28T15:35:04Z</time>
      </trkpt>
      <trkpt lat="46.98168" lon="3.81244">
        <ele>188.56</ele>
        <time>2015-10-28T15:35:21Z</time>
      </trkpt>
      <trkpt lat="46.98178" lon="3.81267">
        <ele>186.63</ele>
        <time>2015-10-28T15:35:36Z</time>
      </trkpt>
      <trkpt lat="46.98193" lon="3.8129">
        <ele>185.67</ele>
        <time>2015-10-28T15:35:52Z</time>
      </trkpt>
      <trkpt lat="46.98211" lon="3.81311">
        <ele>187.11</ele>
        <time>2015-10-28T15:36:09Z</time>
      </trkpt>
      <trkpt lat="46.98213" lon="3.81312">
        <ele>187.59</ele>
        <time>2015-10-28T15:36:12Z</time>
      </trkpt>
      <trkpt lat="46.98237" lon="3.81325">
        <ele>187.59</ele>
        <time>2015-10-28T15:36:30Z</time>
      </trkpt>
      <trkpt lat="46.98244" lon="3.81327">
        <ele>186.63</ele>
        <time>2015-10-28T15:36:36Z</time>
      </trkpt>
      <trkpt lat="46.98257" lon="3.8133">
        <ele>185.67</ele>
        <time>2015-10-28T15:36:52Z</time>
      </trkpt>
      <trkpt lat="46.98257" lon="3.81331">
        <ele>185.67</ele>
        <time>2015-10-28T15:37:04Z</time>
      </trkpt>
      <trkpt lat="46.98264" lon="3.81337">
        <ele>186.63</ele>
        <time>2015-10-28T15:37:12Z</time>
      </trkpt>
      <trkpt lat="46.98281" lon="3.8135">
        <ele>186.15</ele>
        <time>2015-10-28T15:37:26Z</time>
      </trkpt>
      <trkpt lat="46.98286" lon="3.81353">
        <ele>186.63</ele>
        <time>2015-10-28T15:37:30Z</time>
      </trkpt>
      <trkpt lat="46.98296" lon="3.8136">
        <ele>186.15</ele>
        <time>2015-10-28T15:37:39Z</time>
      </trkpt>
      <trkpt lat="46.98302" lon="3.81362">
        <ele>186.15</ele>
        <time>2015-10-28T15:37:43Z</time>
      </trkpt>
      <trkpt lat="46.98313" lon="3.81369">
        <ele>188.08</ele>
        <time>2015-10-28T15:37:52Z</time>
      </trkpt>
      <trkpt lat="46.98322" lon="3.81373">
        <ele>189.04</ele>
        <time>2015-10-28T15:37:58Z</time>
      </trkpt>
      <trkpt lat="46.98337" lon="3.81379">
        <ele>190</ele>
        <time>2015-10-28T15:38:11Z</time>
      </trkpt>
      <trkpt lat="46.98348" lon="3.81387">
        <ele>190</ele>
        <time>2015-10-28T15:38:25Z</time>
      </trkpt>
      <trkpt lat="46.98349" lon="3.81388">
        <ele>190.96</ele>
        <time>2015-10-28T15:38:43Z</time>
      </trkpt>
      <trkpt lat="46.98349" lon="3.81388">
        <ele>190.48</ele>
        <time>2015-10-28T15:39:03Z</time>
      </trkpt>
      <trkpt lat="46.98352" lon="3.8139">
        <ele>190.48</ele>
        <time>2015-10-28T15:39:28Z</time>
      </trkpt>
      <trkpt lat="46.98365" lon="3.81386">
        <ele>190.48</ele>
        <time>2015-10-28T15:39:44Z</time>
      </trkpt>
      <trkpt lat="46.98365" lon="3.81385">
        <ele>190.48</ele>
        <time>2015-10-28T15:40:09Z</time>
      </trkpt>
      <trkpt lat="46.98365" lon="3.81385">
        <ele>190.48</ele>
        <time>2015-10-28T15:40:10Z</time>
      </trkpt>
      <trkpt lat="46.98375" lon="3.81383">
        <ele>189.52</ele>
        <time>2015-10-28T15:40:26Z</time>
      </trkpt>
      <trkpt lat="46.98386" lon="3.81382">
        <ele>187.11</ele>
        <time>2015-10-28T15:40:35Z</time>
      </trkpt>
      <trkpt lat="46.98404" lon="3.81381">
        <ele>183.75</ele>
        <time>2015-10-28T15:40:50Z</time>
      </trkpt>
      <trkpt lat="46.98426" lon="3.81379">
        <ele>178.94</ele>
        <time>2015-10-28T15:41:08Z</time>
      </trkpt>
      <trkpt lat="46.98446" lon="3.81377">
        <ele>176.06</ele>
        <time>2015-10-28T15:41:24Z</time>
      </trkpt>
      <trkpt lat="46.98458" lon="3.81375">
        <ele>174.62</ele>
        <time>2015-10-28T15:41:39Z</time>
      </trkpt>
      <trkpt lat="46.98458" lon="3.81375">
        <ele>174.62</ele>
        <time>2015-10-28T15:41:47Z</time>
      </trkpt>
      <trkpt lat="46.98464" lon="3.81374">
        <ele>174.14</ele>
        <time>2015-10-28T15:41:51Z</time>
      </trkpt>
      <trkpt lat="46.98481" lon="3.81362">
        <ele>171.25</ele>
        <time>2015-10-28T15:42:07Z</time>
      </trkpt>
      <trkpt lat="46.98505" lon="3.81352">
        <ele>176.06</ele>
        <time>2015-10-28T15:42:23Z</time>
      </trkpt>
      <trkpt lat="46.9852" lon="3.81336">
        <ele>171.73</ele>
        <time>2015-10-28T15:42:39Z</time>
      </trkpt>
      <trkpt lat="46.98541" lon="3.81311">
        <ele>167.41</ele>
        <time>2015-10-28T15:42:55Z</time>
      </trkpt>
      <trkpt lat="46.98552" lon="3.81295">
        <ele>164.52</ele>
        <time>2015-10-28T15:43:10Z</time>
      </trkpt>
      <trkpt lat="46.98568" lon="3.81267">
        <ele>161.64</ele>
        <time>2015-10-28T15:43:27Z</time>
      </trkpt>
      <trkpt lat="46.98573" lon="3.81262">
        <ele>160.68</ele>
        <time>2015-10-28T15:43:33Z</time>
      </trkpt>
      <trkpt lat="46.98594" lon="3.81236">
        <ele>162.6</ele>
        <time>2015-10-28T15:43:51Z</time>
      </trkpt>
      <trkpt lat="46.98601" lon="3.81221">
        <ele>166.93</ele>
        <time>2015-10-28T15:44:03Z</time>
      </trkpt>
      <trkpt lat="46.98611" lon="3.81202">
        <ele>170.29</ele>
        <time>2015-10-28T15:44:20Z</time>
      </trkpt>
      <trkpt lat="46.98618" lon="3.81196">
        <ele>172.21</ele>
        <time>2015-10-28T15:44:35Z</time>
      </trkpt>
      <trkpt lat="46.98615" lon="3.81184">
        <ele>178.46</ele>
        <time>2015-10-28T15:44:47Z</time>
      </trkpt>
      <trkpt lat="46.98615" lon="3.81156">
        <ele>182.31</ele>
        <time>2015-10-28T15:45:02Z</time>
      </trkpt>
      <trkpt lat="46.98614" lon="3.81154">
        <ele>182.31</ele>
        <time>2015-10-28T15:45:05Z</time>
      </trkpt>
      <trkpt lat="46.98619" lon="3.81143">
        <ele>179.9</ele>
        <time>2015-10-28T15:45:16Z</time>
      </trkpt>
      <trkpt lat="46.98626" lon="3.81121">
        <ele>178.46</ele>
        <time>2015-10-28T15:45:31Z</time>
      </trkpt>
      <trkpt lat="46.98631" lon="3.81109">
        <ele>177.5</ele>
        <time>2015-10-28T15:45:43Z</time>
      </trkpt>
      <trkpt lat="46.98641" lon="3.8109">
        <ele>177.98</ele>
        <time>2015-10-28T15:45:59Z</time>
      </trkpt>
      <trkpt lat="46.98654" lon="3.81063">
        <ele>177.5</ele>
        <time>2015-10-28T15:46:15Z</time>
      </trkpt>
      <trkpt lat="46.98656" lon="3.8105">
        <ele>176.54</ele>
        <time>2015-10-28T15:46:21Z</time>
      </trkpt>
      <trkpt lat="46.98653" lon="3.81026">
        <ele>173.17</ele>
        <time>2015-10-28T15:46:36Z</time>
      </trkpt>
      <trkpt lat="46.98647" lon="3.80999">
        <ele>175.1</ele>
        <time>2015-10-28T15:46:53Z</time>
      </trkpt>
      <trkpt lat="46.98642" lon="3.80975">
        <ele>175.1</ele>
        <time>2015-10-28T15:47:07Z</time>
      </trkpt>
      <trkpt lat="46.98639" lon="3.80957">
        <ele>174.62</ele>
        <time>2015-10-28T15:47:20Z</time>
      </trkpt>
      <trkpt lat="46.98638" lon="3.80947">
        <ele>174.62</ele>
        <time>2015-10-28T15:47:32Z</time>
      </trkpt>
      <trkpt lat="46.98637" lon="3.80938">
        <ele>174.14</ele>
        <time>2015-10-28T15:47:48Z</time>
      </trkpt>
      <trkpt lat="46.98637" lon="3.80938">
        <ele>174.14</ele>
        <time>2015-10-28T15:48:09Z</time>
      </trkpt>
      <trkpt lat="46.98637" lon="3.80937">
        <ele>174.62</ele>
        <time>2015-10-28T15:48:34Z</time>
      </trkpt>
      <trkpt lat="46.98637" lon="3.80937">
        <ele>174.62</ele>
        <time>2015-10-28T15:48:57Z</time>
      </trkpt>
      <trkpt lat="46.98636" lon="3.80937">
        <ele>174.14</ele>
        <time>2015-10-28T15:49:24Z</time>
      </trkpt>
      <trkpt lat="46.98636" lon="3.80937">
        <ele>174.14</ele>
        <time>2015-10-28T15:49:27Z</time>
      </trkpt>
      <trkpt lat="46.98637" lon="3.80928">
        <ele>174.14</ele>
        <time>2015-10-28T15:49:42Z</time>
      </trkpt>
      <trkpt lat="46.98637" lon="3.80928">
        <ele>174.14</ele>
        <time>2015-10-28T15:50:09Z</time>
      </trkpt>
      <trkpt lat="46.98637" lon="3.80928">
        <ele>174.14</ele>
        <time>2015-10-28T15:50:15Z</time>
      </trkpt>
    </trkseg>
  </trk>
</gpx>